LAN810 YSSY-SCEL
Flight info
| Callsign | LAN810 |
|---|---|
| Flight time | 11h 51m |
| Altitude | 35000 |
| Route | OPTIC Y84 TONIM DCT 40S158E 44S162E 47S166E 49S169E/N0482F370 52S174E 54S178E 56S177W 57S174W 59S166W 61S155W 62S142W 62S138W 61S123W/N0493F390 59S112W 57S105W 54S097W/N0485F400 50S089W 46S083W 41S077W DCT CAR/N0481F410 DCT LODOS/N0476F400 UQ808 EROLO EROLO7F |
| Aircraft | B789/H-SDE1E2E3FGHIJ2J3J4J5M1RWXY/LB1D1 |
Departure
| Time | 2026-05-06 23:40 |
|---|---|
| Airport | Sydney Kingsford Smith International Airport (YSSY) |
Arrival
| Time | 2026-05-07 11:31 |
|---|---|
| Airport | Comodoro Arturo Merino Benítez International Airport (SCEL) |
| Time | Latitude | Longitude | Altitude | Speed | Heading |
|---|---|---|---|---|---|
| 2026-05-06 22:58 | -33.93616 | 151.17012 | 34 ft | 0 kts | 168° |
| 2026-05-06 23:21 | -33.93606 | 151.17010 | 34 ft | 2 kts | 168° |
| 2026-05-06 23:21 | -33.93585 | 151.17005 | 34 ft | 3 kts | 168° |
| 2026-05-06 23:22 | -33.93566 | 151.17000 | 34 ft | 2 kts | 168° |
| 2026-05-06 23:22 | -33.93547 | 151.16995 | 34 ft | 1 kts | 168° |
| 2026-05-06 23:22 | -33.93532 | 151.16990 | 34 ft | 2 kts | 154° |
| 2026-05-06 23:22 | -33.93519 | 151.16978 | 34 ft | 3 kts | 119° |
| 2026-05-06 23:23 | -33.93516 | 151.16961 | 34 ft | 3 kts | 87° |
| 2026-05-06 23:23 | -33.93518 | 151.16938 | 34 ft | 3 kts | 77° |
| 2026-05-06 23:23 | -33.93521 | 151.16923 | 34 ft | 1 kts | 78° |
| 2026-05-06 23:23 | -33.93522 | 151.16920 | 34 ft | 0 kts | 78° |
| 2026-05-06 23:27 | -33.93522 | 151.16921 | 35 ft | 0 kts | 78° |
| 2026-05-06 23:27 | -33.93521 | 151.16923 | 35 ft | 1 kts | 78° |
| 2026-05-06 23:28 | -33.93515 | 151.16960 | 35 ft | 8 kts | 78° |
| 2026-05-06 23:28 | -33.93501 | 151.17036 | 35 ft | 10 kts | 78° |
| 2026-05-06 23:28 | -33.93500 | 151.17097 | 35 ft | 5 kts | 134° |
| 2026-05-06 23:28 | -33.93542 | 151.17113 | 35 ft | 8 kts | 168° |
| 2026-05-06 23:29 | -33.93606 | 151.17129 | 35 ft | 10 kts | 168° |
| 2026-05-06 23:29 | -33.93673 | 151.17146 | 35 ft | 10 kts | 168° |
| 2026-05-06 23:29 | -33.93742 | 151.17164 | 35 ft | 11 kts | 168° |
| 2026-05-06 23:29 | -33.93816 | 151.17183 | 35 ft | 11 kts | 168° |
| 2026-05-06 23:30 | -33.93892 | 151.17203 | 35 ft | 11 kts | 168° |
| 2026-05-06 23:30 | -33.93972 | 151.17223 | 35 ft | 12 kts | 168° |
| 2026-05-06 23:30 | -33.94052 | 151.17244 | 35 ft | 12 kts | 168° |
| 2026-05-06 23:30 | -33.94137 | 151.17266 | 35 ft | 13 kts | 168° |
| 2026-05-06 23:31 | -33.94223 | 151.17289 | 35 ft | 13 kts | 168° |
| 2026-05-06 23:31 | -33.94313 | 151.17312 | 35 ft | 13 kts | 168° |
| 2026-05-06 23:31 | -33.94404 | 151.17336 | 35 ft | 14 kts | 167° |
| 2026-05-06 23:31 | -33.94499 | 151.17361 | 35 ft | 14 kts | 167° |
| 2026-05-06 23:32 | -33.94595 | 151.17386 | 35 ft | 14 kts | 167° |
| 2026-05-06 23:32 | -33.94690 | 151.17411 | 35 ft | 15 kts | 167° |
| 2026-05-06 23:32 | -33.94789 | 151.17438 | 35 ft | 15 kts | 167° |
| 2026-05-06 23:32 | -33.94891 | 151.17465 | 35 ft | 15 kts | 167° |
| 2026-05-06 23:33 | -33.94995 | 151.17492 | 35 ft | 15 kts | 167° |
| 2026-05-06 23:33 | -33.95101 | 151.17521 | 35 ft | 16 kts | 167° |
| 2026-05-06 23:33 | -33.95208 | 151.17550 | 35 ft | 16 kts | 167° |
| 2026-05-06 23:33 | -33.95318 | 151.17579 | 35 ft | 16 kts | 167° |
| 2026-05-06 23:34 | -33.95427 | 151.17608 | 35 ft | 16 kts | 167° |
| 2026-05-06 23:34 | -33.95540 | 151.17639 | 35 ft | 17 kts | 167° |
| 2026-05-06 23:34 | -33.95654 | 151.17666 | 35 ft | 17 kts | 170° |
| 2026-05-06 23:34 | -33.95771 | 151.17694 | 35 ft | 17 kts | 168° |
| 2026-05-06 23:35 | -33.95887 | 151.17723 | 35 ft | 17 kts | 168° |
| 2026-05-06 23:35 | -33.96007 | 151.17753 | 35 ft | 18 kts | 168° |
| 2026-05-06 23:35 | -33.96124 | 151.17782 | 35 ft | 18 kts | 168° |
| 2026-05-06 23:35 | -33.96243 | 151.17812 | 35 ft | 18 kts | 168° |
| 2026-05-06 23:36 | -33.96368 | 151.17843 | 35 ft | 18 kts | 168° |
| 2026-05-06 23:36 | -33.96437 | 151.17931 | 35 ft | 15 kts | 85° |
| 2026-05-06 23:36 | -33.96423 | 151.18012 | 35 ft | 4 kts | 77° |
| 2026-05-06 23:36 | -33.96414 | 151.18043 | 35 ft | 3 kts | 52° |
| 2026-05-06 23:37 | -33.96399 | 151.18053 | 35 ft | 2 kts | 17° |
| 2026-05-06 23:37 | -33.96386 | 151.18053 | 35 ft | 1 kts | 348° |
| 2026-05-06 23:39 | -33.96198 | 151.18007 | 35 ft | 72 kts | 348° |
| 2026-05-06 23:39 | -33.95422 | 151.17804 | 35 ft | 153 kts | 348° |
| 2026-05-06 23:39 | -33.94209 | 151.17491 | 166 ft | 203 kts | 347° |
| 2026-05-06 23:40 | -33.92760 | 151.17109 | 719 ft | 223 kts | 347° |
| 2026-05-06 23:40 | -33.91729 | 151.16841 | 1418 ft | 216 kts | 347° |
| 2026-05-06 23:40 | -33.90313 | 151.16500 | 2487 ft | 209 kts | 348° |
| 2026-05-06 23:40 | -33.88828 | 151.16786 | 2963 ft | 224 kts | 18° |
| 2026-05-06 23:41 | -33.87604 | 151.17965 | 3243 ft | 239 kts | 48° |
| 2026-05-06 23:41 | -33.86633 | 151.19621 | 3598 ft | 247 kts | 53° |
| 2026-05-06 23:41 | -33.85634 | 151.21388 | 3882 ft | 265 kts | 53° |
| 2026-05-06 23:41 | -33.84581 | 151.23305 | 4339 ft | 280 kts | 58° |
| 2026-05-06 23:42 | -33.84041 | 151.25335 | 4727 ft | 294 kts | 84° |
| 2026-05-06 23:42 | -33.84321 | 151.27602 | 5374 ft | 297 kts | 111° |
| 2026-05-06 23:42 | -33.85582 | 151.29733 | 6065 ft | 297 kts | 141° |
| 2026-05-06 23:42 | -33.87291 | 151.31138 | 6813 ft | 296 kts | 150° |
| 2026-05-06 23:43 | -33.89038 | 151.32458 | 7508 ft | 299 kts | 151° |
| 2026-05-06 23:43 | -33.90810 | 151.33802 | 8161 ft | 304 kts | 151° |
| 2026-05-06 23:43 | -33.92601 | 151.35177 | 8831 ft | 307 kts | 150° |
| 2026-05-06 23:43 | -33.94410 | 151.36584 | 9494 ft | 311 kts | 150° |
| 2026-05-06 23:44 | -33.96211 | 151.38005 | 10116 ft | 316 kts | 149° |
| 2026-05-06 23:44 | -33.98035 | 151.39460 | 10361 ft | 335 kts | 149° |
| 2026-05-06 23:44 | -33.99936 | 151.40982 | 10578 ft | 353 kts | 149° |
| 2026-05-06 23:44 | -34.01988 | 151.42414 | 10768 ft | 372 kts | 154° |
| 2026-05-06 23:45 | -34.04172 | 151.44289 | 11185 ft | 388 kts | 140° |
| 2026-05-06 23:45 | -34.06239 | 151.46538 | 11845 ft | 395 kts | 140° |
| 2026-05-06 23:45 | -34.08199 | 151.48786 | 12421 ft | 402 kts | 137° |
| 2026-05-06 23:45 | -34.10234 | 151.51259 | 13118 ft | 407 kts | 135° |
| 2026-05-06 23:46 | -34.12187 | 151.53695 | 13827 ft | 410 kts | 135° |
| 2026-05-06 23:46 | -34.14196 | 151.56214 | 14473 ft | 415 kts | 135° |
| 2026-05-06 23:46 | -34.16184 | 151.58712 | 15084 ft | 420 kts | 135° |
| 2026-05-06 23:46 | -34.18222 | 151.61274 | 15719 ft | 424 kts | 135° |
| 2026-05-06 23:47 | -34.20253 | 151.63826 | 16344 ft | 427 kts | 135° |
| 2026-05-06 23:47 | -34.22338 | 151.66447 | 16944 ft | 432 kts | 135° |
| 2026-05-06 23:47 | -34.24171 | 151.68752 | 17449 ft | 436 kts | 135° |
| 2026-05-06 23:47 | -34.26286 | 151.71415 | 18035 ft | 440 kts | 135° |
| 2026-05-06 23:48 | -34.28413 | 151.74093 | 18599 ft | 444 kts | 135° |
| 2026-05-06 23:48 | -34.30565 | 151.76808 | 19124 ft | 449 kts | 135° |
| 2026-05-06 23:48 | -34.32706 | 151.79510 | 19650 ft | 453 kts | 135° |
| 2026-05-06 23:48 | -34.34902 | 151.82282 | 20192 ft | 457 kts | 135° |
| 2026-05-06 23:49 | -34.37091 | 151.85048 | 20702 ft | 462 kts | 135° |
| 2026-05-06 23:49 | -34.39218 | 151.87795 | 21193 ft | 466 kts | 133° |
| 2026-05-06 23:49 | -34.41325 | 151.90696 | 21688 ft | 470 kts | 132° |
| 2026-05-06 23:49 | -34.43467 | 151.93745 | 22163 ft | 475 kts | 131° |
| 2026-05-06 23:50 | -34.45303 | 151.96408 | 22566 ft | 479 kts | 130° |
| 2026-05-06 23:50 | -34.49435 | 152.02451 | 23479 ft | 486 kts | 130° |
| 2026-05-06 23:50 | -34.51608 | 152.05633 | 23940 ft | 490 kts | 130° |
| 2026-05-06 23:51 | -34.53764 | 152.08791 | 24365 ft | 494 kts | 130° |
| 2026-05-06 23:51 | -34.55973 | 152.12027 | 24783 ft | 499 kts | 130° |
| 2026-05-06 23:51 | -34.58195 | 152.15285 | 25197 ft | 503 kts | 130° |
| 2026-05-06 23:51 | -34.60447 | 152.18590 | 25607 ft | 507 kts | 130° |
| 2026-05-06 23:52 | -34.62675 | 152.21861 | 25982 ft | 511 kts | 130° |
| 2026-05-06 23:52 | -34.64939 | 152.25185 | 26344 ft | 516 kts | 130° |
| 2026-05-06 23:52 | -34.67249 | 152.28581 | 26739 ft | 519 kts | 130° |
| 2026-05-06 23:52 | -34.69554 | 152.31973 | 27129 ft | 523 kts | 130° |
| 2026-05-06 23:53 | -34.71877 | 152.35396 | 27478 ft | 527 kts | 130° |
| 2026-05-06 23:53 | -34.74211 | 152.38838 | 27815 ft | 531 kts | 130° |
| 2026-05-06 23:53 | -34.76567 | 152.42316 | 28169 ft | 534 kts | 130° |
| 2026-05-06 23:53 | -34.78941 | 152.45826 | 28515 ft | 537 kts | 130° |
| 2026-05-06 23:54 | -34.81321 | 152.49347 | 28830 ft | 541 kts | 130° |
| 2026-05-06 23:54 | -34.83724 | 152.52906 | 29158 ft | 545 kts | 130° |
| 2026-05-06 23:54 | -34.86136 | 152.56484 | 29486 ft | 548 kts | 130° |
| 2026-05-06 23:54 | -34.88562 | 152.60085 | 29794 ft | 551 kts | 130° |
| 2026-05-06 23:55 | -34.91000 | 152.63708 | 30110 ft | 554 kts | 130° |
| 2026-05-06 23:55 | -34.93438 | 152.67333 | 30536 ft | 554 kts | 130° |
| 2026-05-06 23:55 | -34.95846 | 152.70922 | 31045 ft | 552 kts | 130° |
| 2026-05-06 23:55 | -34.98270 | 152.74539 | 31510 ft | 550 kts | 130° |
| 2026-05-06 23:56 | -35.00697 | 152.78163 | 31886 ft | 551 kts | 130° |
| 2026-05-06 23:56 | -35.03130 | 152.81797 | 32229 ft | 552 kts | 130° |
| 2026-05-06 23:56 | -35.05566 | 152.85440 | 32599 ft | 552 kts | 131° |
| 2026-05-06 23:56 | -35.07998 | 152.89080 | 33004 ft | 552 kts | 131° |
| 2026-05-06 23:57 | -35.10385 | 152.92655 | 33390 ft | 551 kts | 131° |
| 2026-05-06 23:57 | -35.12698 | 152.96122 | 33740 ft | 551 kts | 131° |
| 2026-05-06 23:57 | -35.15246 | 152.99947 | 34095 ft | 551 kts | 131° |
| 2026-05-06 23:57 | -35.17638 | 153.03542 | 34435 ft | 551 kts | 131° |
| 2026-05-06 23:58 | -35.20059 | 153.07185 | 34777 ft | 550 kts | 131° |
| 2026-05-06 23:58 | -35.22450 | 153.10785 | 34956 ft | 551 kts | 131° |
| 2026-05-06 23:58 | -35.24830 | 153.14372 | 35058 ft | 552 kts | 131° |
| 2026-05-06 23:58 | -35.27252 | 153.18026 | 35075 ft | 556 kts | 131° |
| 2026-05-06 23:59 | -35.32088 | 153.25335 | 35039 ft | 559 kts | 130° |
| 2026-05-06 23:59 | -35.37018 | 153.32803 | 35112 ft | 563 kts | 130° |
| 2026-05-07 00:00 | -35.39482 | 153.36543 | 35412 ft | 562 kts | 130° |
| 2026-05-07 00:00 | -35.41928 | 153.40260 | 35847 ft | 558 kts | 130° |
| 2026-05-07 00:00 | -35.44366 | 153.43968 | 36269 ft | 555 kts | 131° |
| 2026-05-07 00:00 | -35.46723 | 153.47557 | 36580 ft | 554 kts | 131° |
| 2026-05-07 00:01 | -35.49107 | 153.51187 | 36841 ft | 554 kts | 131° |
| 2026-05-07 00:01 | -35.51518 | 153.54863 | 37013 ft | 556 kts | 130° |
| 2026-05-07 00:01 | -35.56390 | 153.62305 | 37074 ft | 557 kts | 130° |
| 2026-05-07 00:02 | -35.60783 | 153.69032 | 37049 ft | 555 kts | 130° |
| 2026-05-07 00:02 | -35.65666 | 153.76524 | 37025 ft | 554 kts | 130° |
| 2026-05-07 00:03 | -35.70481 | 153.83925 | 37010 ft | 554 kts | 130° |
| 2026-05-07 00:03 | -35.75299 | 153.91347 | 37015 ft | 554 kts | 130° |
| 2026-05-07 00:04 | -35.80106 | 153.98769 | 37032 ft | 553 kts | 130° |
| 2026-05-07 00:04 | -35.84909 | 154.06201 | 37024 ft | 553 kts | 130° |
| 2026-05-07 00:05 | -35.89618 | 154.13503 | 37014 ft | 553 kts | 130° |
| 2026-05-07 00:05 | -35.94093 | 154.20457 | 37016 ft | 553 kts | 130° |
| 2026-05-07 00:06 | -35.98666 | 154.27582 | 37029 ft | 553 kts | 130° |
| 2026-05-07 00:06 | -36.04097 | 154.34348 | 37031 ft | 554 kts | 143° |
| 2026-05-07 00:07 | -36.09948 | 154.40154 | 37030 ft | 552 kts | 146° |
| 2026-05-07 00:07 | -36.16212 | 154.45743 | 37020 ft | 557 kts | 148° |
| 2026-05-07 00:08 | -36.22594 | 154.51247 | 37015 ft | 559 kts | 148° |
| 2026-05-07 00:08 | -36.28979 | 154.56769 | 37027 ft | 560 kts | 148° |
| 2026-05-07 00:09 | -36.35367 | 154.62323 | 37019 ft | 560 kts | 148° |
| 2026-05-07 00:09 | -36.41719 | 154.67854 | 37018 ft | 561 kts | 148° |
| 2026-05-07 00:10 | -36.48039 | 154.73369 | 37029 ft | 561 kts | 148° |
| 2026-05-07 00:10 | -36.54492 | 154.79014 | 37016 ft | 561 kts | 148° |
| 2026-05-07 00:11 | -36.60885 | 154.84617 | 37021 ft | 561 kts | 148° |
| 2026-05-07 00:11 | -36.67214 | 154.90175 | 37027 ft | 561 kts | 148° |
| 2026-05-07 00:12 | -36.73625 | 154.95817 | 37013 ft | 561 kts | 148° |
| 2026-05-07 00:12 | -36.79963 | 155.01406 | 37019 ft | 561 kts | 148° |
| 2026-05-07 00:13 | -36.86328 | 155.07032 | 37027 ft | 561 kts | 147° |
| 2026-05-07 00:13 | -36.92692 | 155.12669 | 37014 ft | 561 kts | 147° |
| 2026-05-07 00:14 | -36.99068 | 155.18327 | 37021 ft | 560 kts | 147° |
| 2026-05-07 00:14 | -37.05442 | 155.23992 | 37022 ft | 561 kts | 147° |
| 2026-05-07 00:15 | -37.11773 | 155.29632 | 37011 ft | 561 kts | 147° |
| 2026-05-07 00:15 | -37.18136 | 155.35314 | 37024 ft | 561 kts | 147° |
| 2026-05-07 00:16 | -37.24485 | 155.40993 | 37017 ft | 560 kts | 147° |
| 2026-05-07 00:16 | -37.30844 | 155.46695 | 37013 ft | 560 kts | 147° |
| 2026-05-07 00:17 | -37.37153 | 155.52368 | 37024 ft | 560 kts | 147° |
| 2026-05-07 00:17 | -37.43474 | 155.58060 | 37014 ft | 560 kts | 147° |
| 2026-05-07 00:18 | -37.49842 | 155.63809 | 37010 ft | 560 kts | 147° |
| 2026-05-07 00:18 | -37.56143 | 155.69506 | 37024 ft | 560 kts | 147° |
| 2026-05-07 00:19 | -37.62479 | 155.75244 | 37012 ft | 560 kts | 146° |
| 2026-05-07 00:19 | -37.68828 | 155.81013 | 37013 ft | 560 kts | 146° |
| 2026-05-07 00:20 | -37.75163 | 155.86781 | 37022 ft | 560 kts | 146° |
| 2026-05-07 00:20 | -37.81463 | 155.92529 | 37008 ft | 560 kts | 146° |
| 2026-05-07 00:21 | -37.87787 | 155.98310 | 37016 ft | 560 kts | 146° |
| 2026-05-07 00:21 | -37.93865 | 156.03877 | 37023 ft | 560 kts | 146° |
| 2026-05-07 00:22 | -38.00201 | 156.09694 | 37007 ft | 560 kts | 146° |
| 2026-05-07 00:22 | -38.06524 | 156.15511 | 37014 ft | 560 kts | 146° |
| 2026-05-07 00:23 | -38.12831 | 156.21327 | 37017 ft | 560 kts | 146° |
| 2026-05-07 00:23 | -38.18083 | 156.26180 | 37005 ft | 560 kts | 146° |
| 2026-05-07 00:24 | -38.25424 | 156.32975 | 37012 ft | 560 kts | 146° |
| 2026-05-07 00:24 | -38.31720 | 156.38819 | 37016 ft | 560 kts | 146° |
| 2026-05-07 00:25 | -38.36956 | 156.43688 | 37005 ft | 559 kts | 146° |
| 2026-05-07 00:25 | -38.43233 | 156.49537 | 37013 ft | 559 kts | 146° |
| 2026-05-07 00:26 | -38.49510 | 156.55400 | 37011 ft | 558 kts | 146° |
| 2026-05-07 00:26 | -38.55798 | 156.61285 | 37003 ft | 558 kts | 145° |
| 2026-05-07 00:27 | -38.62019 | 156.67122 | 37014 ft | 558 kts | 145° |
| 2026-05-07 00:27 | -38.68275 | 156.73005 | 37007 ft | 557 kts | 145° |
| 2026-05-07 00:28 | -38.74526 | 156.78893 | 37002 ft | 557 kts | 145° |
| 2026-05-07 00:28 | -38.80735 | 156.84756 | 37013 ft | 556 kts | 145° |
| 2026-05-07 00:29 | -38.86962 | 156.90650 | 37002 ft | 556 kts | 145° |
| 2026-05-07 00:30 | -38.99362 | 157.02425 | 37012 ft | 555 kts | 144° |
| 2026-05-07 00:30 | -39.05571 | 157.08340 | 36998 ft | 555 kts | 144° |
| 2026-05-07 00:31 | -39.11769 | 157.14259 | 37004 ft | 554 kts | 144° |
| 2026-05-07 00:31 | -39.17971 | 157.20194 | 37006 ft | 554 kts | 144° |
| 2026-05-07 00:32 | -39.24168 | 157.26137 | 36994 ft | 554 kts | 144° |
| 2026-05-07 00:32 | -39.30357 | 157.32088 | 37006 ft | 554 kts | 144° |
| 2026-05-07 00:33 | -39.36499 | 157.38005 | 37000 ft | 554 kts | 144° |
| 2026-05-07 00:33 | -39.42672 | 157.43967 | 36994 ft | 553 kts | 144° |
| 2026-05-07 00:34 | -39.48803 | 157.49903 | 37006 ft | 553 kts | 144° |
| 2026-05-07 00:34 | -39.54971 | 157.55887 | 36992 ft | 552 kts | 144° |
| 2026-05-07 00:35 | -39.61124 | 157.61870 | 36997 ft | 552 kts | 144° |
| 2026-05-07 00:35 | -39.67275 | 157.67862 | 37000 ft | 552 kts | 144° |
| 2026-05-07 00:36 | -39.73364 | 157.73809 | 36987 ft | 551 kts | 144° |
| 2026-05-07 00:36 | -39.79508 | 157.79823 | 37001 ft | 551 kts | 143° |
| 2026-05-07 00:37 | -39.85594 | 157.85794 | 36991 ft | 551 kts | 143° |
| 2026-05-07 00:37 | -39.91735 | 157.91833 | 36978 ft | 551 kts | 143° |
| 2026-05-07 00:38 | -39.97875 | 157.97822 | 36981 ft | 551 kts | 144° |
| 2026-05-07 00:38 | -40.04088 | 158.03715 | 36986 ft | 551 kts | 145° |
| 2026-05-07 00:39 | -40.10279 | 158.09500 | 36973 ft | 551 kts | 145° |
| 2026-05-07 00:39 | -40.16535 | 158.15311 | 36982 ft | 551 kts | 146° |
| 2026-05-07 00:40 | -40.22792 | 158.21130 | 36978 ft | 550 kts | 145° |
| 2026-05-07 00:40 | -40.28991 | 158.26914 | 36972 ft | 550 kts | 145° |
| 2026-05-07 00:41 | -40.35230 | 158.32756 | 36983 ft | 550 kts | 145° |
| 2026-05-07 00:41 | -40.41454 | 158.38590 | 36968 ft | 549 kts | 145° |
| 2026-05-07 00:42 | -40.47680 | 158.44436 | 36974 ft | 549 kts | 145° |
| 2026-05-07 00:42 | -40.53899 | 158.50293 | 36977 ft | 549 kts | 145° |
| 2026-05-07 00:43 | -40.60111 | 158.56157 | 36964 ft | 549 kts | 145° |
| 2026-05-07 00:43 | -40.66276 | 158.61989 | 36976 ft | 548 kts | 145° |
| 2026-05-07 00:44 | -40.72477 | 158.67869 | 36968 ft | 548 kts | 145° |
| 2026-05-07 00:44 | -40.78663 | 158.73745 | 36964 ft | 547 kts | 144° |
| 2026-05-07 00:45 | -40.84807 | 158.79601 | 36974 ft | 547 kts | 144° |
| 2026-05-07 00:45 | -40.90978 | 158.85496 | 36959 ft | 547 kts | 144° |
| 2026-05-07 00:46 | -40.97158 | 158.91412 | 36967 ft | 546 kts | 144° |
| 2026-05-07 00:46 | -41.03286 | 158.97292 | 36966 ft | 546 kts | 144° |
| 2026-05-07 00:47 | -41.09440 | 159.03210 | 36954 ft | 546 kts | 144° |
| 2026-05-07 00:47 | -41.15593 | 159.09142 | 36966 ft | 546 kts | 144° |
| 2026-05-07 00:48 | -41.21733 | 159.15072 | 36959 ft | 546 kts | 144° |
| 2026-05-07 00:48 | -41.27833 | 159.20978 | 36952 ft | 546 kts | 144° |
| 2026-05-07 00:49 | -41.33970 | 159.26936 | 36965 ft | 545 kts | 144° |
| 2026-05-07 00:49 | -41.40096 | 159.32898 | 36953 ft | 545 kts | 144° |
| 2026-05-07 00:50 | -41.46230 | 159.38885 | 36951 ft | 544 kts | 144° |
| 2026-05-07 00:50 | -41.52334 | 159.44853 | 36959 ft | 544 kts | 144° |
| 2026-05-07 00:51 | -41.58405 | 159.50804 | 36946 ft | 544 kts | 143° |
| 2026-05-07 00:51 | -41.64513 | 159.56807 | 36950 ft | 543 kts | 143° |
| 2026-05-07 00:52 | -41.70606 | 159.62808 | 36952 ft | 543 kts | 143° |
| 2026-05-07 00:52 | -41.76666 | 159.68790 | 36939 ft | 543 kts | 143° |
| 2026-05-07 00:53 | -41.82744 | 159.74804 | 36942 ft | 542 kts | 143° |
| 2026-05-07 00:53 | -41.88822 | 159.80834 | 36947 ft | 542 kts | 143° |
| 2026-05-07 00:54 | -41.94834 | 159.86813 | 36933 ft | 542 kts | 143° |
| 2026-05-07 00:54 | -42.00895 | 159.92855 | 36941 ft | 542 kts | 143° |
| 2026-05-07 00:55 | -42.06958 | 159.98913 | 36939 ft | 542 kts | 143° |
| 2026-05-07 00:55 | -42.13008 | 160.04973 | 36928 ft | 542 kts | 143° |
| 2026-05-07 00:56 | -42.19025 | 160.11016 | 36940 ft | 542 kts | 143° |
| 2026-05-07 00:56 | -42.25077 | 160.17108 | 36931 ft | 542 kts | 143° |
| 2026-05-07 00:57 | -42.31023 | 160.23107 | 36934 ft | 542 kts | 143° |
| 2026-05-07 00:57 | -42.37063 | 160.29217 | 36951 ft | 542 kts | 143° |
| 2026-05-07 00:58 | -42.43098 | 160.35336 | 36943 ft | 542 kts | 143° |
| 2026-05-07 00:58 | -42.49091 | 160.41428 | 36937 ft | 542 kts | 143° |
| 2026-05-07 00:59 | -42.58134 | 160.50648 | 36946 ft | 541 kts | 143° |
| 2026-05-07 01:00 | -42.64157 | 160.56810 | 36933 ft | 541 kts | 143° |
| 2026-05-07 01:00 | -42.70136 | 160.62941 | 36942 ft | 541 kts | 143° |
| 2026-05-07 01:01 | -42.76146 | 160.69119 | 36941 ft | 540 kts | 143° |
| 2026-05-07 01:01 | -42.82141 | 160.75296 | 36929 ft | 540 kts | 142° |
| 2026-05-07 01:02 | -42.88097 | 160.81448 | 36941 ft | 540 kts | 143° |
| 2026-05-07 01:02 | -42.93923 | 160.87480 | 36938 ft | 540 kts | 142° |
| 2026-05-07 01:03 | -42.99916 | 160.93701 | 36926 ft | 540 kts | 142° |
| 2026-05-07 01:03 | -43.05857 | 160.99885 | 36936 ft | 540 kts | 142° |
| 2026-05-07 01:04 | -43.11837 | 161.06124 | 36930 ft | 539 kts | 142° |
| 2026-05-07 01:04 | -43.17813 | 161.12374 | 36923 ft | 539 kts | 142° |
| 2026-05-07 01:05 | -43.23743 | 161.18593 | 36935 ft | 539 kts | 142° |
| 2026-05-07 01:05 | -43.29701 | 161.24857 | 36923 ft | 539 kts | 142° |
| 2026-05-07 01:06 | -43.35631 | 161.31106 | 36923 ft | 539 kts | 142° |
| 2026-05-07 01:06 | -43.41577 | 161.37393 | 36930 ft | 539 kts | 142° |
| 2026-05-07 01:07 | -43.47517 | 161.43688 | 36917 ft | 539 kts | 142° |
| 2026-05-07 01:07 | -43.53464 | 161.50004 | 36919 ft | 538 kts | 142° |
| 2026-05-07 01:08 | -43.59365 | 161.56286 | 36925 ft | 538 kts | 142° |
| 2026-05-07 01:08 | -43.65297 | 161.62618 | 36912 ft | 538 kts | 142° |
| 2026-05-07 01:09 | -43.71158 | 161.68891 | 36920 ft | 537 kts | 142° |
| 2026-05-07 01:09 | -43.77120 | 161.75286 | 36924 ft | 537 kts | 142° |
| 2026-05-07 01:10 | -43.83013 | 161.81626 | 36906 ft | 537 kts | 142° |
| 2026-05-07 01:10 | -43.87914 | 161.86910 | 36910 ft | 537 kts | 142° |
| 2026-05-07 01:11 | -43.94775 | 161.94326 | 36913 ft | 537 kts | 142° |
| 2026-05-07 01:11 | -43.99589 | 161.99777 | 36895 ft | 536 kts | 139° |
| 2026-05-07 01:12 | -44.05265 | 162.06554 | 36867 ft | 536 kts | 138° |
| 2026-05-07 01:12 | -44.10658 | 162.13196 | 36846 ft | 536 kts | 137° |
| 2026-05-07 01:13 | -44.16229 | 162.20135 | 36832 ft | 536 kts | 137° |
| 2026-05-07 01:13 | -44.21752 | 162.27034 | 36834 ft | 536 kts | 137° |
| 2026-05-07 01:14 | -44.27311 | 162.33990 | 36842 ft | 536 kts | 137° |
| 2026-05-07 01:14 | -44.32867 | 162.40958 | 36827 ft | 536 kts | 137° |
| 2026-05-07 01:15 | -44.38412 | 162.47931 | 36834 ft | 536 kts | 137° |
| 2026-05-07 01:15 | -44.43953 | 162.54916 | 36831 ft | 536 kts | 137° |
| 2026-05-07 01:16 | -44.49461 | 162.61880 | 36818 ft | 536 kts | 137° |
| 2026-05-07 01:16 | -44.54984 | 162.68881 | 36824 ft | 537 kts | 137° |
| 2026-05-07 01:17 | -44.60524 | 162.75910 | 36826 ft | 537 kts | 137° |
| 2026-05-07 01:17 | -44.65934 | 162.82794 | 36813 ft | 537 kts | 137° |
| 2026-05-07 01:18 | -44.71427 | 162.89810 | 36827 ft | 537 kts | 137° |
| 2026-05-07 01:18 | -44.76966 | 162.96907 | 36824 ft | 537 kts | 137° |
| 2026-05-07 01:19 | -44.82504 | 163.04023 | 36813 ft | 537 kts | 137° |
| 2026-05-07 01:19 | -44.87977 | 163.11072 | 36827 ft | 536 kts | 137° |
| 2026-05-07 01:20 | -44.93487 | 163.18190 | 36813 ft | 537 kts | 137° |
| 2026-05-07 01:20 | -44.98992 | 163.25321 | 36817 ft | 536 kts | 137° |
| 2026-05-07 01:21 | -45.04481 | 163.32448 | 36823 ft | 536 kts | 137° |
| 2026-05-07 01:21 | -45.09981 | 163.39609 | 36810 ft | 536 kts | 137° |
| 2026-05-07 01:22 | -45.15450 | 163.46751 | 36819 ft | 537 kts | 137° |
| 2026-05-07 01:22 | -45.20863 | 163.53839 | 36805 ft | 537 kts | 137° |
| 2026-05-07 01:23 | -45.26351 | 163.61047 | 36786 ft | 537 kts | 137° |
| 2026-05-07 01:23 | -45.31838 | 163.68272 | 36785 ft | 537 kts | 137° |
| 2026-05-07 01:24 | -45.37295 | 163.75477 | 36795 ft | 537 kts | 136° |
| 2026-05-07 01:24 | -45.42771 | 163.82726 | 36782 ft | 537 kts | 136° |
| 2026-05-07 01:25 | -45.48249 | 163.89999 | 36788 ft | 537 kts | 136° |
| 2026-05-07 01:25 | -45.53721 | 163.97283 | 36792 ft | 537 kts | 136° |
| 2026-05-07 01:26 | -45.59136 | 164.04513 | 36779 ft | 537 kts | 136° |
| 2026-05-07 01:26 | -45.64617 | 164.11850 | 36791 ft | 537 kts | 136° |
| 2026-05-07 01:27 | -45.70074 | 164.19177 | 36786 ft | 537 kts | 136° |
| 2026-05-07 01:27 | -45.75382 | 164.26322 | 36778 ft | 537 kts | 136° |
| 2026-05-07 01:28 | -45.80835 | 164.33684 | 36792 ft | 537 kts | 136° |
| 2026-05-07 01:28 | -45.86238 | 164.40998 | 36783 ft | 537 kts | 136° |
| 2026-05-07 01:29 | -45.91672 | 164.48375 | 36781 ft | 537 kts | 136° |
| 2026-05-07 01:29 | -45.97119 | 164.55790 | 36792 ft | 537 kts | 136° |
| 2026-05-07 01:30 | -46.02545 | 164.63200 | 36778 ft | 537 kts | 136° |
| 2026-05-07 01:30 | -46.07929 | 164.70571 | 36786 ft | 537 kts | 136° |
| 2026-05-07 01:31 | -46.13337 | 164.77997 | 36799 ft | 537 kts | 136° |
| 2026-05-07 01:31 | -46.18759 | 164.85459 | 36788 ft | 537 kts | 136° |
| 2026-05-07 01:32 | -46.24174 | 164.92934 | 36790 ft | 537 kts | 136° |
| 2026-05-07 01:32 | -46.29397 | 165.00168 | 36800 ft | 537 kts | 136° |
| 2026-05-07 01:33 | -46.34794 | 165.07663 | 36787 ft | 537 kts | 136° |
| 2026-05-07 01:33 | -46.40158 | 165.15134 | 36791 ft | 537 kts | 136° |
| 2026-05-07 01:34 | -46.45543 | 165.22656 | 36798 ft | 537 kts | 136° |
| 2026-05-07 01:34 | -46.50924 | 165.30194 | 36785 ft | 537 kts | 135° |
| 2026-05-07 01:35 | -46.56304 | 165.37758 | 36794 ft | 536 kts | 135° |
| 2026-05-07 01:35 | -46.61631 | 165.45268 | 36795 ft | 536 kts | 135° |
| 2026-05-07 01:36 | -46.66995 | 165.52849 | 36782 ft | 536 kts | 135° |
| 2026-05-07 01:36 | -46.72321 | 165.60396 | 36797 ft | 536 kts | 135° |
| 2026-05-07 01:37 | -46.77682 | 165.68012 | 36787 ft | 536 kts | 135° |
| 2026-05-07 01:37 | -46.82988 | 165.75575 | 36784 ft | 536 kts | 135° |
| 2026-05-07 01:38 | -46.88335 | 165.83220 | 36797 ft | 536 kts | 135° |
| 2026-05-07 01:38 | -46.93663 | 165.90861 | 36786 ft | 536 kts | 135° |
| 2026-05-07 01:39 | -46.99015 | 165.98513 | 36788 ft | 536 kts | 135° |
| 2026-05-07 01:39 | -47.04333 | 166.06100 | 36797 ft | 536 kts | 135° |
| 2026-05-07 01:40 | -47.09690 | 166.13736 | 36783 ft | 536 kts | 135° |
| 2026-05-07 01:40 | -47.15015 | 166.21330 | 36793 ft | 536 kts | 135° |
| 2026-05-07 01:41 | -47.20378 | 166.28996 | 36792 ft | 536 kts | 135° |
| 2026-05-07 01:41 | -47.25715 | 166.36648 | 36782 ft | 536 kts | 135° |
| 2026-05-07 01:42 | -47.31070 | 166.44350 | 36796 ft | 536 kts | 135° |
| 2026-05-07 01:42 | -47.36228 | 166.51791 | 36788 ft | 537 kts | 135° |
| 2026-05-07 01:43 | -47.41538 | 166.59474 | 36764 ft | 537 kts | 135° |
| 2026-05-07 01:43 | -47.46871 | 166.67212 | 36753 ft | 538 kts | 135° |
| 2026-05-07 01:44 | -47.52209 | 166.74982 | 36766 ft | 538 kts | 135° |
| 2026-05-07 01:44 | -47.57547 | 166.82775 | 36763 ft | 538 kts | 135° |
| 2026-05-07 01:45 | -47.62886 | 166.90590 | 36754 ft | 539 kts | 135° |
| 2026-05-07 01:45 | -47.68192 | 166.98382 | 36768 ft | 540 kts | 134° |
| 2026-05-07 01:46 | -47.73526 | 167.06242 | 36754 ft | 540 kts | 134° |
| 2026-05-07 01:46 | -47.78861 | 167.14127 | 36753 ft | 541 kts | 134° |
| 2026-05-07 01:47 | -47.84183 | 167.22018 | 36764 ft | 542 kts | 134° |
| 2026-05-07 01:47 | -47.89481 | 167.29894 | 36755 ft | 543 kts | 134° |
| 2026-05-07 01:48 | -47.94793 | 167.37816 | 36751 ft | 543 kts | 134° |
| 2026-05-07 01:48 | -48.00119 | 167.45784 | 36762 ft | 544 kts | 134° |
| 2026-05-07 01:49 | -48.05475 | 167.53821 | 36748 ft | 545 kts | 134° |
| 2026-05-07 01:49 | -48.10833 | 167.61887 | 36756 ft | 546 kts | 134° |
| 2026-05-07 01:50 | -48.16192 | 167.69979 | 36757 ft | 547 kts | 134° |
| 2026-05-07 01:50 | -48.21513 | 167.78040 | 36747 ft | 547 kts | 134° |
| 2026-05-07 01:51 | -48.26875 | 167.86189 | 36732 ft | 547 kts | 134° |
| 2026-05-07 01:51 | -48.32216 | 167.94332 | 36720 ft | 547 kts | 134° |
| 2026-05-07 01:52 | -48.37502 | 168.02417 | 36729 ft | 547 kts | 134° |
| 2026-05-07 01:52 | -48.42888 | 168.10678 | 36731 ft | 547 kts | 134° |
| 2026-05-07 01:53 | -48.48222 | 168.18889 | 36719 ft | 548 kts | 134° |
| 2026-05-07 01:53 | -48.53519 | 168.27067 | 36728 ft | 548 kts | 134° |
| 2026-05-07 01:54 | -48.58841 | 168.35311 | 36727 ft | 548 kts | 134° |
| 2026-05-07 01:54 | -48.64162 | 168.43580 | 36718 ft | 548 kts | 134° |
| 2026-05-07 01:55 | -48.69481 | 168.51872 | 36731 ft | 548 kts | 134° |
| 2026-05-07 01:55 | -48.74761 | 168.60130 | 36723 ft | 548 kts | 134° |
| 2026-05-07 01:56 | -48.80071 | 168.68461 | 36720 ft | 548 kts | 133° |
| 2026-05-07 01:56 | -48.84487 | 168.75411 | 36733 ft | 549 kts | 134° |
| 2026-05-07 01:57 | -48.90641 | 168.85128 | 36731 ft | 549 kts | 133° |
| 2026-05-07 01:57 | -48.95058 | 168.92098 | 36732 ft | 549 kts | 134° |
| 2026-05-07 01:58 | -49.00418 | 169.00416 | 36731 ft | 549 kts | 134° |
| 2026-05-07 01:58 | -49.05802 | 169.08726 | 36729 ft | 549 kts | 134° |
| 2026-05-07 01:59 | -49.11172 | 169.16932 | 36730 ft | 550 kts | 135° |
| 2026-05-07 01:59 | -49.16593 | 169.25190 | 36732 ft | 550 kts | 135° |
| 2026-05-07 02:00 | -49.22015 | 169.33475 | 36727 ft | 551 kts | 135° |
| 2026-05-07 02:00 | -49.27434 | 169.41787 | 36731 ft | 551 kts | 135° |
| 2026-05-07 02:01 | -49.32845 | 169.50116 | 36733 ft | 551 kts | 135° |
| 2026-05-07 02:01 | -49.38222 | 169.58427 | 36721 ft | 551 kts | 135° |
| 2026-05-07 02:02 | -49.43634 | 169.66817 | 36732 ft | 552 kts | 135° |
| 2026-05-07 02:02 | -49.48270 | 169.74024 | 36737 ft | 552 kts | 135° |
| 2026-05-07 02:03 | -49.53678 | 169.82457 | 36724 ft | 553 kts | 134° |
| 2026-05-07 02:03 | -49.59077 | 169.90904 | 36726 ft | 554 kts | 135° |
| 2026-05-07 02:04 | -49.64480 | 169.99384 | 36734 ft | 554 kts | 135° |
| 2026-05-07 02:04 | -49.69850 | 170.07841 | 36720 ft | 555 kts | 134° |
| 2026-05-07 02:05 | -49.75253 | 170.16378 | 36728 ft | 555 kts | 134° |
| 2026-05-07 02:05 | -49.80659 | 170.24952 | 36737 ft | 555 kts | 134° |
| 2026-05-07 02:06 | -49.86052 | 170.33534 | 36734 ft | 556 kts | 134° |
| 2026-05-07 02:06 | -49.91452 | 170.42154 | 36729 ft | 556 kts | 134° |
| 2026-05-07 02:07 | -49.96810 | 170.50739 | 36741 ft | 556 kts | 134° |
| 2026-05-07 02:07 | -50.04713 | 170.63456 | 36727 ft | 556 kts | 134° |
| 2026-05-07 02:08 | -50.10081 | 170.72129 | 36734 ft | 556 kts | 134° |
| 2026-05-07 02:08 | -50.15451 | 170.80836 | 36740 ft | 556 kts | 134° |
| 2026-05-07 02:09 | -50.20816 | 170.89563 | 36726 ft | 556 kts | 134° |
| 2026-05-07 02:09 | -50.26136 | 170.98248 | 36735 ft | 556 kts | 134° |
| 2026-05-07 02:10 | -50.31480 | 171.07002 | 36735 ft | 556 kts | 134° |
| 2026-05-07 02:10 | -50.36829 | 171.15796 | 36724 ft | 557 kts | 134° |
| 2026-05-07 02:11 | -50.42157 | 171.24585 | 36736 ft | 557 kts | 134° |
| 2026-05-07 02:11 | -50.47446 | 171.33340 | 36733 ft | 557 kts | 134° |
| 2026-05-07 02:12 | -50.52612 | 171.41920 | 36718 ft | 557 kts | 134° |
| 2026-05-07 02:12 | -50.57954 | 171.50824 | 36707 ft | 557 kts | 134° |
| 2026-05-07 02:13 | -50.63276 | 171.59727 | 36710 ft | 557 kts | 134° |
| 2026-05-07 02:13 | -50.68592 | 171.68651 | 36716 ft | 558 kts | 134° |
| 2026-05-07 02:14 | -50.73863 | 171.77533 | 36702 ft | 558 kts | 134° |
| 2026-05-07 02:14 | -50.79170 | 171.86509 | 36713 ft | 558 kts | 134° |
| 2026-05-07 02:15 | -50.84462 | 171.95491 | 36711 ft | 558 kts | 134° |
| 2026-05-07 02:15 | -50.89757 | 172.04508 | 36704 ft | 558 kts | 134° |
| 2026-05-07 02:16 | -50.95041 | 172.13537 | 36714 ft | 559 kts | 134° |
| 2026-05-07 02:16 | -51.00298 | 172.22552 | 36706 ft | 559 kts | 134° |
| 2026-05-07 02:17 | -51.05593 | 172.31661 | 36701 ft | 559 kts | 134° |
| 2026-05-07 02:17 | -51.10867 | 172.40770 | 36714 ft | 559 kts | 134° |
| 2026-05-07 02:18 | -51.16093 | 172.49830 | 36703 ft | 559 kts | 134° |
| 2026-05-07 02:18 | -51.21116 | 172.58574 | 36701 ft | 559 kts | 134° |
| 2026-05-07 02:19 | -51.26372 | 172.67752 | 36734 ft | 560 kts | 134° |
| 2026-05-07 02:19 | -51.31597 | 172.76907 | 36753 ft | 560 kts | 134° |
| 2026-05-07 02:20 | -51.36850 | 172.86149 | 36761 ft | 560 kts | 134° |
| 2026-05-07 02:20 | -51.42093 | 172.95407 | 36747 ft | 560 kts | 134° |
| 2026-05-07 02:21 | -51.47297 | 173.04629 | 36760 ft | 561 kts | 134° |
| 2026-05-07 02:21 | -51.52536 | 173.13946 | 36755 ft | 561 kts | 134° |
| 2026-05-07 02:22 | -51.57759 | 173.23268 | 36748 ft | 562 kts | 134° |
| 2026-05-07 02:22 | -51.62981 | 173.32624 | 36759 ft | 562 kts | 134° |
| 2026-05-07 02:23 | -51.68205 | 173.42019 | 36758 ft | 562 kts | 134° |
| 2026-05-07 02:23 | -51.73290 | 173.51194 | 36748 ft | 563 kts | 134° |
| 2026-05-07 02:24 | -51.78601 | 173.60818 | 36757 ft | 563 kts | 134° |
| 2026-05-07 02:24 | -51.83806 | 173.70286 | 36758 ft | 564 kts | 134° |
| 2026-05-07 02:25 | -51.89022 | 173.79811 | 36746 ft | 565 kts | 134° |
| 2026-05-07 02:25 | -51.94237 | 173.89368 | 36760 ft | 565 kts | 134° |
| 2026-05-07 02:26 | -51.99403 | 173.98871 | 36755 ft | 565 kts | 134° |
| 2026-05-07 02:26 | -52.04603 | 174.08491 | 36749 ft | 565 kts | 134° |
| 2026-05-07 02:27 | -52.09642 | 174.17855 | 36771 ft | 565 kts | 134° |
| 2026-05-07 02:27 | -52.14830 | 174.27534 | 36757 ft | 565 kts | 134° |
| 2026-05-07 02:28 | -52.20001 | 174.37217 | 36748 ft | 565 kts | 133° |
| 2026-05-07 02:28 | -52.25155 | 174.46903 | 36760 ft | 564 kts | 133° |
| 2026-05-07 02:29 | -52.30296 | 174.56606 | 36751 ft | 564 kts | 133° |
| 2026-05-07 02:29 | -52.35389 | 174.66253 | 36750 ft | 564 kts | 133° |
| 2026-05-07 02:30 | -52.40506 | 174.75985 | 36760 ft | 563 kts | 133° |
| 2026-05-07 02:30 | -52.45617 | 174.85744 | 36746 ft | 562 kts | 133° |
| 2026-05-07 02:31 | -52.50696 | 174.95481 | 36760 ft | 561 kts | 133° |
| 2026-05-07 02:31 | -52.55744 | 175.05191 | 36754 ft | 560 kts | 133° |
| 2026-05-07 02:32 | -52.60355 | 175.14090 | 36747 ft | 560 kts | 133° |
| 2026-05-07 02:32 | -52.65515 | 175.24092 | 36758 ft | 559 kts | 133° |
| 2026-05-07 02:33 | -52.70537 | 175.33869 | 36753 ft | 558 kts | 133° |
| 2026-05-07 02:33 | -52.75547 | 175.43656 | 36741 ft | 558 kts | 133° |
| 2026-05-07 02:34 | -52.80552 | 175.53471 | 36703 ft | 558 kts | 133° |
| 2026-05-07 02:34 | -52.85542 | 175.63295 | 36666 ft | 557 kts | 133° |
| 2026-05-07 02:35 | -52.90496 | 175.73086 | 36633 ft | 557 kts | 133° |
| 2026-05-07 02:35 | -52.95475 | 175.82970 | 36613 ft | 557 kts | 133° |
| 2026-05-07 02:36 | -53.00435 | 175.92858 | 36605 ft | 557 kts | 132° |
| 2026-05-07 02:36 | -53.05358 | 176.02706 | 36611 ft | 556 kts | 133° |
| 2026-05-07 02:37 | -53.10174 | 176.12372 | 36612 ft | 555 kts | 132° |
| 2026-05-07 02:37 | -53.15065 | 176.22230 | 36600 ft | 554 kts | 132° |
| 2026-05-07 02:38 | -53.19973 | 176.32164 | 36604 ft | 554 kts | 132° |
| 2026-05-07 02:38 | -53.24861 | 176.42098 | 36606 ft | 553 kts | 132° |
| 2026-05-07 02:39 | -53.29742 | 176.52055 | 36593 ft | 553 kts | 132° |
| 2026-05-07 02:39 | -53.34617 | 176.62040 | 36602 ft | 553 kts | 132° |
| 2026-05-07 02:40 | -53.39441 | 176.71957 | 36599 ft | 552 kts | 132° |
| 2026-05-07 02:40 | -53.44303 | 176.81992 | 36588 ft | 552 kts | 131° |
| 2026-05-07 02:41 | -53.49113 | 176.91961 | 36598 ft | 552 kts | 131° |
| 2026-05-07 02:41 | -53.53937 | 177.02010 | 36593 ft | 551 kts | 131° |
| 2026-05-07 02:42 | -53.58648 | 177.11856 | 36583 ft | 551 kts | 131° |
| 2026-05-07 02:42 | -53.62642 | 177.20227 | 36590 ft | 551 kts | 131° |
| 2026-05-07 02:43 | -53.68220 | 177.31976 | 36589 ft | 551 kts | 131° |
| 2026-05-07 02:43 | -53.72227 | 177.40449 | 36578 ft | 550 kts | 131° |
| 2026-05-07 02:44 | -53.76972 | 177.50517 | 36585 ft | 550 kts | 131° |
| 2026-05-07 02:44 | -53.81741 | 177.60669 | 36585 ft | 550 kts | 131° |
| 2026-05-07 02:45 | -53.86484 | 177.70812 | 36572 ft | 549 kts | 131° |
| 2026-05-07 02:45 | -53.91060 | 177.80645 | 36580 ft | 549 kts | 130° |
| 2026-05-07 02:46 | -53.95781 | 177.90839 | 36578 ft | 549 kts | 130° |
| 2026-05-07 02:46 | -54.00449 | 178.01112 | 36565 ft | 549 kts | 129° |
| 2026-05-07 02:47 | -54.05040 | 178.11416 | 36577 ft | 549 kts | 129° |
| 2026-05-07 02:47 | -54.09619 | 178.21833 | 36574 ft | 549 kts | 129° |
| 2026-05-07 02:48 | -54.14190 | 178.32298 | 36561 ft | 549 kts | 129° |
| 2026-05-07 02:48 | -54.18742 | 178.42765 | 36568 ft | 550 kts | 129° |
| 2026-05-07 02:49 | -54.23271 | 178.53220 | 36569 ft | 550 kts | 129° |
| 2026-05-07 02:49 | -54.27813 | 178.63743 | 36554 ft | 550 kts | 129° |
| 2026-05-07 02:50 | -54.32356 | 178.74322 | 36564 ft | 550 kts | 128° |
| 2026-05-07 02:50 | -54.36889 | 178.84923 | 36560 ft | 550 kts | 128° |
| 2026-05-07 02:51 | -54.41408 | 178.95528 | 36550 ft | 550 kts | 128° |
| 2026-05-07 02:51 | -54.45884 | 179.06078 | 36562 ft | 550 kts | 128° |
| 2026-05-07 02:52 | -54.50390 | 179.16746 | 36551 ft | 550 kts | 128° |
| 2026-05-07 02:52 | -54.54881 | 179.27424 | 36547 ft | 550 kts | 128° |
| 2026-05-07 02:53 | -54.59333 | 179.38055 | 36556 ft | 549 kts | 128° |
| 2026-05-07 02:53 | -54.63808 | 179.48789 | 36540 ft | 549 kts | 128° |
| 2026-05-07 02:54 | -54.68231 | 179.59442 | 36538 ft | 549 kts | 128° |
| 2026-05-07 02:54 | -54.72677 | 179.70198 | 36546 ft | 548 kts | 128° |
| 2026-05-07 02:55 | -54.77112 | 179.80973 | 36533 ft | 548 kts | 128° |
| 2026-05-07 02:55 | -54.81510 | 179.91699 | 36532 ft | 549 kts | 128° |
| 2026-05-07 02:56 | -54.85921 | -179.97487 | 36558 ft | 549 kts | 128° |
| 2026-05-07 02:56 | -54.90334 | -179.86619 | 36592 ft | 549 kts | 128° |
| 2026-05-07 02:57 | -54.94692 | -179.75846 | 36626 ft | 549 kts | 128° |
| 2026-05-07 02:57 | -54.99018 | -179.65108 | 36657 ft | 549 kts | 128° |
| 2026-05-07 02:58 | -55.03410 | -179.54154 | 36686 ft | 549 kts | 128° |
| 2026-05-07 02:58 | -55.07759 | -179.43261 | 36716 ft | 550 kts | 128° |
| 2026-05-07 02:59 | -55.12129 | -179.32270 | 36745 ft | 551 kts | 128° |
| 2026-05-07 02:59 | -55.16496 | -179.21229 | 36777 ft | 551 kts | 128° |
| 2026-05-07 03:00 | -55.20818 | -179.10257 | 36810 ft | 551 kts | 127° |
| 2026-05-07 03:00 | -55.25165 | -178.99173 | 36841 ft | 551 kts | 127° |
| 2026-05-07 03:01 | -55.29494 | -178.88084 | 36858 ft | 551 kts | 127° |
| 2026-05-07 03:01 | -55.33825 | -178.76938 | 36864 ft | 551 kts | 127° |
| 2026-05-07 03:02 | -55.37760 | -178.66764 | 36852 ft | 551 kts | 127° |
| 2026-05-07 03:02 | -55.42064 | -178.55593 | 36854 ft | 552 kts | 127° |
| 2026-05-07 03:03 | -55.46337 | -178.44449 | 36855 ft | 552 kts | 127° |
| 2026-05-07 03:03 | -55.50643 | -178.33178 | 36845 ft | 553 kts | 127° |
| 2026-05-07 03:04 | -55.54927 | -178.21897 | 36857 ft | 553 kts | 127° |
| 2026-05-07 03:04 | -55.59211 | -178.10572 | 36852 ft | 554 kts | 127° |
| 2026-05-07 03:05 | -55.63495 | -177.99202 | 36846 ft | 554 kts | 127° |
| 2026-05-07 03:05 | -55.67747 | -177.87860 | 36860 ft | 555 kts | 127° |
| 2026-05-07 03:06 | -55.72008 | -177.76437 | 36850 ft | 555 kts | 127° |
| 2026-05-07 03:06 | -55.76267 | -177.64967 | 36848 ft | 555 kts | 127° |
| 2026-05-07 03:07 | -55.80313 | -177.54015 | 36861 ft | 555 kts | 127° |
| 2026-05-07 03:07 | -55.84595 | -177.42375 | 36850 ft | 555 kts | 127° |
| 2026-05-07 03:08 | -55.88818 | -177.30840 | 36852 ft | 554 kts | 126° |
| 2026-05-07 03:08 | -55.93018 | -177.19317 | 36883 ft | 553 kts | 126° |
| 2026-05-07 03:09 | -55.97142 | -177.07950 | 36905 ft | 553 kts | 126° |
| 2026-05-07 03:09 | -56.01265 | -176.96438 | 36908 ft | 553 kts | 126° |
| 2026-05-07 03:10 | -56.05397 | -176.84776 | 36888 ft | 555 kts | 126° |
| 2026-05-07 03:10 | -56.09498 | -176.73107 | 36892 ft | 556 kts | 126° |
| 2026-05-07 03:11 | -56.13605 | -176.61354 | 36903 ft | 556 kts | 126° |
| 2026-05-07 03:11 | -56.17700 | -176.49593 | 36889 ft | 555 kts | 126° |
| 2026-05-07 03:12 | -56.21518 | -176.38577 | 36899 ft | 555 kts | 126° |
| 2026-05-07 03:12 | -56.25693 | -176.26472 | 36903 ft | 555 kts | 126° |
| 2026-05-07 03:13 | -56.29751 | -176.14638 | 36889 ft | 554 kts | 126° |
| 2026-05-07 03:13 | -56.33787 | -176.02813 | 36875 ft | 553 kts | 126° |
| 2026-05-07 03:14 | -56.37788 | -175.91036 | 36865 ft | 553 kts | 126° |
| 2026-05-07 03:15 | -56.43802 | -175.73228 | 36880 ft | 553 kts | 125° |
| 2026-05-07 03:15 | -56.47783 | -175.61367 | 36867 ft | 554 kts | 125° |
| 2026-05-07 03:16 | -56.51781 | -175.49392 | 36873 ft | 554 kts | 125° |
| 2026-05-07 03:16 | -56.55760 | -175.37413 | 36877 ft | 555 kts | 125° |
| 2026-05-07 03:17 | -56.59717 | -175.25446 | 36870 ft | 555 kts | 124° |
| 2026-05-07 03:17 | -56.63539 | -175.13829 | 36871 ft | 557 kts | 124° |
| 2026-05-07 03:18 | -56.67511 | -175.01692 | 36869 ft | 559 kts | 124° |
| 2026-05-07 03:18 | -56.71431 | -174.89652 | 36858 ft | 559 kts | 124° |
| 2026-05-07 03:19 | -56.75428 | -174.77319 | 36868 ft | 560 kts | 124° |
| 2026-05-07 03:19 | -56.79360 | -174.65122 | 36869 ft | 560 kts | 124° |
| 2026-05-07 03:20 | -56.83284 | -174.52886 | 36858 ft | 560 kts | 124° |
| 2026-05-07 03:20 | -56.87206 | -174.40597 | 36873 ft | 560 kts | 124° |
| 2026-05-07 03:21 | -56.91094 | -174.28352 | 36867 ft | 560 kts | 124° |
| 2026-05-07 03:21 | -56.95002 | -174.15975 | 36849 ft | 561 kts | 124° |
| 2026-05-07 03:22 | -56.98733 | -174.03985 | 36848 ft | 561 kts | 123° |
| 2026-05-07 03:22 | -57.02433 | -173.91781 | 36852 ft | 562 kts | 123° |
| 2026-05-07 03:23 | -57.06156 | -173.79245 | 36848 ft | 562 kts | 122° |
| 2026-05-07 03:23 | -57.09884 | -173.66546 | 36854 ft | 562 kts | 122° |
| 2026-05-07 03:24 | -57.13568 | -173.53930 | 36849 ft | 562 kts | 122° |
| 2026-05-07 03:24 | -57.17254 | -173.41235 | 36851 ft | 563 kts | 122° |
| 2026-05-07 03:25 | -57.20948 | -173.28460 | 36857 ft | 563 kts | 122° |
| 2026-05-07 03:25 | -57.24622 | -173.15679 | 36845 ft | 563 kts | 122° |
| 2026-05-07 03:26 | -57.28289 | -173.02848 | 36852 ft | 564 kts | 122° |
| 2026-05-07 03:26 | -57.31941 | -172.89982 | 36859 ft | 563 kts | 122° |
| 2026-05-07 03:27 | -57.35555 | -172.77191 | 36846 ft | 564 kts | 122° |
| 2026-05-07 03:27 | -57.38930 | -172.65187 | 36846 ft | 564 kts | 122° |
| 2026-05-07 03:28 | -57.42563 | -172.52191 | 36869 ft | 564 kts | 122° |
| 2026-05-07 03:28 | -57.46159 | -172.39250 | 36894 ft | 565 kts | 122° |
| 2026-05-07 03:29 | -57.49159 | -172.28404 | 36908 ft | 565 kts | 122° |
| 2026-05-07 03:29 | -57.53330 | -172.13225 | 36900 ft | 566 kts | 122° |
| 2026-05-07 03:30 | -57.56297 | -172.02375 | 36895 ft | 567 kts | 122° |
| 2026-05-07 03:30 | -57.59875 | -171.89218 | 36910 ft | 567 kts | 122° |
| 2026-05-07 03:31 | -57.63353 | -171.76355 | 36922 ft | 567 kts | 121° |
| 2026-05-07 03:31 | -57.66821 | -171.63457 | 36915 ft | 567 kts | 121° |
| 2026-05-07 03:32 | -57.70349 | -171.50255 | 36903 ft | 567 kts | 121° |
| 2026-05-07 03:32 | -57.73738 | -171.37506 | 36918 ft | 566 kts | 121° |
| 2026-05-07 03:33 | -57.77246 | -171.24234 | 36921 ft | 566 kts | 121° |
| 2026-05-07 03:33 | -57.80678 | -171.11163 | 36907 ft | 565 kts | 121° |
| 2026-05-07 03:34 | -57.84170 | -170.97790 | 36914 ft | 564 kts | 121° |
| 2026-05-07 03:34 | -57.87600 | -170.84577 | 36918 ft | 563 kts | 121° |
| 2026-05-07 03:35 | -57.91000 | -170.71401 | 36906 ft | 562 kts | 121° |
| 2026-05-07 03:35 | -57.94402 | -170.58146 | 36919 ft | 562 kts | 121° |
| 2026-05-07 03:36 | -57.97765 | -170.44958 | 36914 ft | 561 kts | 121° |
| 2026-05-07 03:36 | -58.01140 | -170.31646 | 36911 ft | 561 kts | 121° |
| 2026-05-07 03:37 | -58.04497 | -170.18331 | 36922 ft | 562 kts | 121° |
| 2026-05-07 03:37 | -58.07684 | -170.05616 | 36912 ft | 562 kts | 121° |
| 2026-05-07 03:38 | -58.11018 | -169.92228 | 36909 ft | 562 kts | 121° |
| 2026-05-07 03:38 | -58.14332 | -169.78837 | 36922 ft | 562 kts | 120° |
| 2026-05-07 03:39 | -58.17609 | -169.65519 | 36911 ft | 562 kts | 120° |
| 2026-05-07 03:39 | -58.20885 | -169.52108 | 36913 ft | 563 kts | 120° |
| 2026-05-07 03:40 | -58.24165 | -169.38596 | 36923 ft | 563 kts | 120° |
| 2026-05-07 03:40 | -58.27444 | -169.25028 | 36910 ft | 564 kts | 120° |
| 2026-05-07 03:41 | -58.30688 | -169.11521 | 36918 ft | 564 kts | 120° |
| 2026-05-07 03:41 | -58.33919 | -168.97975 | 36921 ft | 564 kts | 120° |
| 2026-05-07 03:42 | -58.37145 | -168.84360 | 36910 ft | 563 kts | 120° |
| 2026-05-07 03:42 | -58.40240 | -168.71217 | 36921 ft | 563 kts | 120° |
| 2026-05-07 03:43 | -58.43420 | -168.57629 | 36917 ft | 563 kts | 120° |
| 2026-05-07 03:43 | -58.46602 | -168.43956 | 36913 ft | 562 kts | 120° |
| 2026-05-07 03:44 | -58.49764 | -168.30276 | 36923 ft | 562 kts | 120° |
| 2026-05-07 03:44 | -58.52894 | -168.16651 | 36915 ft | 561 kts | 120° |
| 2026-05-07 03:45 | -58.56021 | -168.02951 | 36915 ft | 561 kts | 119° |
| 2026-05-07 03:45 | -58.59138 | -167.89202 | 36927 ft | 561 kts | 119° |
| 2026-05-07 03:46 | -58.62205 | -167.75586 | 36957 ft | 561 kts | 119° |
| 2026-05-07 03:46 | -58.65292 | -167.61788 | 36973 ft | 561 kts | 119° |
| 2026-05-07 03:47 | -58.68355 | -167.48003 | 36972 ft | 561 kts | 119° |
| 2026-05-07 03:47 | -58.71281 | -167.34772 | 36960 ft | 561 kts | 119° |
| 2026-05-07 03:48 | -58.74328 | -167.20896 | 36971 ft | 562 kts | 119° |
| 2026-05-07 03:48 | -58.77359 | -167.06990 | 36976 ft | 562 kts | 119° |
| 2026-05-07 03:49 | -58.80354 | -166.93156 | 36962 ft | 562 kts | 119° |
| 2026-05-07 03:49 | -58.83355 | -166.79206 | 36976 ft | 561 kts | 119° |
| 2026-05-07 03:50 | -58.86342 | -166.65229 | 36973 ft | 562 kts | 119° |
| 2026-05-07 03:50 | -58.89305 | -166.51268 | 36953 ft | 561 kts | 119° |
| 2026-05-07 03:51 | -58.92235 | -166.37366 | 36945 ft | 561 kts | 118° |
| 2026-05-07 03:51 | -58.95171 | -166.23345 | 36957 ft | 561 kts | 118° |
| 2026-05-07 03:52 | -58.98120 | -166.09320 | 36950 ft | 562 kts | 120° |
| 2026-05-07 03:52 | -59.01045 | -165.96121 | 36937 ft | 561 kts | 120° |
| 2026-05-07 03:53 | -59.04186 | -165.82348 | 36953 ft | 561 kts | 121° |
| 2026-05-07 03:53 | -59.07407 | -165.68517 | 36957 ft | 560 kts | 122° |
| 2026-05-07 03:54 | -59.10627 | -165.54697 | 36945 ft | 559 kts | 122° |
| 2026-05-07 03:54 | -59.13799 | -165.40988 | 36958 ft | 559 kts | 122° |
| 2026-05-07 03:55 | -59.16978 | -165.27149 | 36951 ft | 559 kts | 121° |
| 2026-05-07 03:55 | -59.20141 | -165.13290 | 36947 ft | 559 kts | 121° |
| 2026-05-07 03:56 | -59.23269 | -164.99491 | 36960 ft | 559 kts | 121° |
| 2026-05-07 03:56 | -59.26423 | -164.85478 | 36948 ft | 559 kts | 121° |
| 2026-05-07 03:57 | -59.29506 | -164.71697 | 36952 ft | 559 kts | 121° |
| 2026-05-07 03:57 | -59.32631 | -164.57639 | 36960 ft | 559 kts | 121° |
| 2026-05-07 03:58 | -59.35710 | -164.43695 | 36947 ft | 560 kts | 121° |
| 2026-05-07 03:58 | -59.38788 | -164.29665 | 36953 ft | 561 kts | 121° |
| 2026-05-07 03:59 | -59.41862 | -164.15552 | 36959 ft | 562 kts | 121° |
| 2026-05-07 03:59 | -59.44917 | -164.01428 | 36945 ft | 562 kts | 121° |
| 2026-05-07 04:00 | -59.47976 | -163.87198 | 36957 ft | 563 kts | 121° |
| 2026-05-07 04:00 | -59.51016 | -163.72960 | 36954 ft | 564 kts | 121° |
| 2026-05-07 04:01 | -59.53995 | -163.58886 | 36948 ft | 563 kts | 120° |
| 2026-05-07 04:01 | -59.56996 | -163.44615 | 36961 ft | 563 kts | 120° |
| 2026-05-07 04:02 | -59.59970 | -163.30394 | 36946 ft | 563 kts | 120° |
| 2026-05-07 04:02 | -59.62611 | -163.17685 | 36947 ft | 562 kts | 120° |
| 2026-05-07 04:03 | -59.65555 | -163.03420 | 36958 ft | 561 kts | 120° |
| 2026-05-07 04:03 | -59.68492 | -162.89079 | 36954 ft | 561 kts | 120° |
| 2026-05-07 04:04 | -59.71390 | -162.74834 | 36948 ft | 561 kts | 120° |
| 2026-05-07 04:04 | -59.74281 | -162.60517 | 36961 ft | 560 kts | 120° |
| 2026-05-07 04:05 | -59.77173 | -162.46096 | 36956 ft | 560 kts | 120° |
| 2026-05-07 04:05 | -59.80046 | -162.31671 | 36948 ft | 561 kts | 120° |
| 2026-05-07 04:06 | -59.82888 | -162.17295 | 36961 ft | 561 kts | 120° |
| 2026-05-07 04:06 | -59.85733 | -162.02795 | 36952 ft | 562 kts | 120° |
| 2026-05-07 04:07 | -59.88568 | -161.88244 | 36950 ft | 562 kts | 119° |
| 2026-05-07 04:07 | -59.91355 | -161.73830 | 36963 ft | 562 kts | 119° |
| 2026-05-07 04:08 | -59.94140 | -161.59316 | 36953 ft | 562 kts | 119° |
| 2026-05-07 04:08 | -59.96919 | -161.44715 | 36953 ft | 562 kts | 119° |
| 2026-05-07 04:09 | -59.99677 | -161.30125 | 36963 ft | 561 kts | 119° |
| 2026-05-07 04:09 | -60.02419 | -161.15522 | 36949 ft | 561 kts | 118° |
| 2026-05-07 04:10 | -60.05136 | -161.00945 | 36954 ft | 561 kts | 118° |
| 2026-05-07 04:10 | -60.07842 | -160.86305 | 36963 ft | 560 kts | 118° |
| 2026-05-07 04:11 | -60.10527 | -160.71662 | 36948 ft | 559 kts | 118° |
| 2026-05-07 04:11 | -60.13169 | -160.57149 | 36960 ft | 558 kts | 118° |
| 2026-05-07 04:12 | -60.15330 | -160.45200 | 36966 ft | 557 kts | 118° |
| 2026-05-07 04:12 | -60.18308 | -160.28614 | 36956 ft | 556 kts | 118° |
| 2026-05-07 04:13 | -60.20489 | -160.16370 | 36946 ft | 556 kts | 118° |
| 2026-05-07 04:13 | -60.23081 | -160.01704 | 36962 ft | 555 kts | 118° |
| 2026-05-07 04:14 | -60.25656 | -159.87029 | 36955 ft | 555 kts | 118° |
| 2026-05-07 04:14 | -60.28192 | -159.72452 | 36958 ft | 554 kts | 117° |
| 2026-05-07 04:15 | -60.30731 | -159.57752 | 36987 ft | 554 kts | 117° |
| 2026-05-07 04:15 | -60.33239 | -159.43110 | 37003 ft | 554 kts | 117° |
| 2026-05-07 04:16 | -60.35709 | -159.28579 | 37002 ft | 554 kts | 117° |
| 2026-05-07 04:16 | -60.38206 | -159.13769 | 36992 ft | 553 kts | 117° |
| 2026-05-07 04:17 | -60.40649 | -158.99160 | 37007 ft | 552 kts | 116° |
| 2026-05-07 04:17 | -60.43100 | -158.84392 | 37001 ft | 552 kts | 116° |
| 2026-05-07 04:18 | -60.45526 | -158.69649 | 36994 ft | 551 kts | 116° |
| 2026-05-07 04:18 | -60.47937 | -158.54883 | 37008 ft | 550 kts | 116° |
| 2026-05-07 04:19 | -60.50185 | -158.40978 | 36998 ft | 549 kts | 116° |
| 2026-05-07 04:19 | -60.52539 | -158.26317 | 36997 ft | 548 kts | 116° |
| 2026-05-07 04:20 | -60.54885 | -158.11584 | 37007 ft | 548 kts | 116° |
| 2026-05-07 04:20 | -60.57224 | -157.96779 | 36993 ft | 548 kts | 116° |
| 2026-05-07 04:21 | -60.60654 | -157.74850 | 37008 ft | 547 kts | 116° |
| 2026-05-07 04:21 | -60.62961 | -157.59933 | 36999 ft | 547 kts | 115° |
| 2026-05-07 04:22 | -60.65210 | -157.45268 | 36993 ft | 547 kts | 115° |
| 2026-05-07 04:22 | -60.67468 | -157.30416 | 37006 ft | 547 kts | 115° |
| 2026-05-07 04:23 | -60.69706 | -157.15546 | 36992 ft | 548 kts | 115° |
| 2026-05-07 04:23 | -60.71929 | -157.00644 | 36989 ft | 548 kts | 115° |
| 2026-05-07 04:24 | -60.74121 | -156.85833 | 37002 ft | 548 kts | 115° |
| 2026-05-07 04:24 | -60.76312 | -156.70904 | 36987 ft | 548 kts | 115° |
| 2026-05-07 04:25 | -60.78491 | -156.55928 | 36997 ft | 547 kts | 115° |
| 2026-05-07 04:25 | -60.80650 | -156.40951 | 36997 ft | 547 kts | 115° |
| 2026-05-07 04:26 | -60.82779 | -156.26043 | 36988 ft | 548 kts | 114° |
| 2026-05-07 04:26 | -60.84899 | -156.11065 | 36997 ft | 547 kts | 114° |
| 2026-05-07 04:27 | -60.87006 | -155.96029 | 37001 ft | 547 kts | 114° |
| 2026-05-07 04:27 | -60.89095 | -155.80988 | 36987 ft | 547 kts | 114° |
| 2026-05-07 04:28 | -60.91167 | -155.65936 | 36998 ft | 546 kts | 114° |
| 2026-05-07 04:28 | -60.93205 | -155.50988 | 36997 ft | 546 kts | 113° |
| 2026-05-07 04:29 | -60.95241 | -155.35911 | 36986 ft | 546 kts | 113° |
| 2026-05-07 04:29 | -60.97259 | -155.20828 | 36998 ft | 545 kts | 113° |
| 2026-05-07 04:30 | -60.99256 | -155.05710 | 36997 ft | 545 kts | 112° |
| 2026-05-07 04:30 | -61.01199 | -154.90688 | 36987 ft | 545 kts | 112° |
| 2026-05-07 04:31 | -61.03118 | -154.75621 | 37001 ft | 545 kts | 112° |
| 2026-05-07 04:31 | -61.05022 | -154.60485 | 36993 ft | 545 kts | 111° |
| 2026-05-07 04:32 | -61.06850 | -154.45797 | 36987 ft | 544 kts | 111° |
| 2026-05-07 04:32 | -61.08735 | -154.30508 | 36999 ft | 544 kts | 111° |
| 2026-05-07 04:33 | -61.10574 | -154.15429 | 36996 ft | 543 kts | 111° |
| 2026-05-07 04:33 | -61.12408 | -154.00231 | 36989 ft | 543 kts | 111° |
| 2026-05-07 04:34 | -61.14223 | -153.85031 | 37000 ft | 542 kts | 110° |
| 2026-05-07 04:34 | -61.16003 | -153.69963 | 36997 ft | 541 kts | 110° |
| 2026-05-07 04:35 | -61.17779 | -153.54785 | 36988 ft | 541 kts | 110° |
| 2026-05-07 04:35 | -61.19521 | -153.39730 | 37001 ft | 540 kts | 110° |
| 2026-05-07 04:36 | -61.21263 | -153.24518 | 36994 ft | 541 kts | 110° |
| 2026-05-07 04:36 | -61.22987 | -153.09299 | 36990 ft | 541 kts | 109° |
| 2026-05-07 04:37 | -61.24613 | -152.94776 | 37004 ft | 541 kts | 109° |
| 2026-05-07 04:37 | -61.26350 | -152.79099 | 37002 ft | 541 kts | 109° |
| 2026-05-07 04:38 | -61.28019 | -152.63852 | 36996 ft | 540 kts | 109° |
| 2026-05-07 04:38 | -61.29662 | -152.48676 | 37009 ft | 539 kts | 109° |
| 2026-05-07 04:39 | -61.31293 | -152.33441 | 36999 ft | 539 kts | 108° |
| 2026-05-07 04:39 | -61.32903 | -152.18229 | 36998 ft | 538 kts | 108° |
| 2026-05-07 04:40 | -61.34492 | -152.03027 | 37009 ft | 538 kts | 108° |
| 2026-05-07 04:40 | -61.36071 | -151.87763 | 36995 ft | 538 kts | 108° |
| 2026-05-07 04:41 | -61.37633 | -151.72482 | 37006 ft | 537 kts | 107° |
| 2026-05-07 04:41 | -61.39166 | -151.57305 | 37003 ft | 537 kts | 107° |
| 2026-05-07 04:42 | -61.40687 | -151.42044 | 36993 ft | 537 kts | 107° |
| 2026-05-07 04:42 | -61.42194 | -151.26749 | 37006 ft | 537 kts | 107° |
| 2026-05-07 04:43 | -61.43684 | -151.11428 | 37002 ft | 537 kts | 107° |
| 2026-05-07 04:43 | -61.45145 | -150.96192 | 36996 ft | 537 kts | 107° |
| 2026-05-07 04:44 | -61.46597 | -150.80876 | 37009 ft | 537 kts | 106° |
| 2026-05-07 04:44 | -61.48037 | -150.65512 | 36999 ft | 537 kts | 106° |
| 2026-05-07 04:45 | -61.49461 | -150.50126 | 36999 ft | 537 kts | 106° |
| 2026-05-07 04:45 | -61.50864 | -150.34755 | 37010 ft | 537 kts | 105° |
| 2026-05-07 04:46 | -61.52241 | -150.19453 | 36996 ft | 537 kts | 105° |
| 2026-05-07 04:46 | -61.53608 | -150.04057 | 37001 ft | 537 kts | 105° |
| 2026-05-07 04:47 | -61.54958 | -149.88650 | 37010 ft | 537 kts | 105° |
| 2026-05-07 04:47 | -61.56289 | -149.73268 | 36998 ft | 536 kts | 105° |
| 2026-05-07 04:48 | -61.57606 | -149.57807 | 36997 ft | 536 kts | 104° |
| 2026-05-07 04:48 | -61.58894 | -149.42478 | 37015 ft | 536 kts | 104° |
| 2026-05-07 04:49 | -61.60172 | -149.27050 | 37005 ft | 536 kts | 104° |
| 2026-05-07 04:49 | -61.61432 | -149.11597 | 37004 ft | 535 kts | 104° |
| 2026-05-07 04:50 | -61.62675 | -148.96159 | 37016 ft | 535 kts | 104° |
| 2026-05-07 04:50 | -61.63894 | -148.80776 | 37002 ft | 535 kts | 104° |
| 2026-05-07 04:51 | -61.65098 | -148.65352 | 37010 ft | 534 kts | 103° |
| 2026-05-07 04:51 | -61.66285 | -148.49900 | 37016 ft | 533 kts | 103° |
| 2026-05-07 04:52 | -61.67449 | -148.34542 | 37000 ft | 533 kts | 103° |
| 2026-05-07 04:52 | -61.68603 | -148.19072 | 37009 ft | 533 kts | 103° |
| 2026-05-07 04:53 | -61.69730 | -148.03700 | 37013 ft | 532 kts | 102° |
| 2026-05-07 04:53 | -61.70841 | -147.88289 | 37001 ft | 532 kts | 102° |
| 2026-05-07 04:54 | -61.71934 | -147.72904 | 37013 ft | 531 kts | 102° |
| 2026-05-07 04:54 | -61.73010 | -147.57513 | 37010 ft | 531 kts | 102° |
| 2026-05-07 04:55 | -61.74072 | -147.42058 | 37002 ft | 531 kts | 102° |
| 2026-05-07 04:55 | -61.75109 | -147.26678 | 37016 ft | 530 kts | 102° |
| 2026-05-07 04:56 | -61.76134 | -147.11237 | 37007 ft | 530 kts | 102° |
| 2026-05-07 04:56 | -61.77139 | -146.95795 | 37005 ft | 530 kts | 102° |
| 2026-05-07 04:57 | -61.77958 | -146.82976 | 37016 ft | 529 kts | 102° |
| 2026-05-07 04:57 | -61.79087 | -146.65028 | 37005 ft | 528 kts | 101° |
| 2026-05-07 04:58 | -61.80034 | -146.49693 | 37007 ft | 527 kts | 101° |
| 2026-05-07 04:58 | -61.80967 | -146.34291 | 37016 ft | 527 kts | 101° |
| 2026-05-07 04:59 | -61.81728 | -146.21508 | 37004 ft | 526 kts | 101° |
| 2026-05-07 04:59 | -61.82625 | -146.06125 | 37010 ft | 525 kts | 101° |
| 2026-05-07 05:00 | -61.83504 | -145.90773 | 37014 ft | 525 kts | 101° |
| 2026-05-07 05:00 | -61.84361 | -145.75530 | 37002 ft | 525 kts | 101° |
| 2026-05-07 05:01 | -61.85208 | -145.60124 | 37013 ft | 525 kts | 100° |
| 2026-05-07 05:01 | -61.86036 | -145.44737 | 37011 ft | 525 kts | 100° |
| 2026-05-07 05:02 | -61.86845 | -145.29411 | 37000 ft | 525 kts | 100° |
| 2026-05-07 05:02 | -61.87599 | -145.14802 | 37011 ft | 526 kts | 100° |
| 2026-05-07 05:03 | -61.88371 | -144.99494 | 37014 ft | 526 kts | 100° |
| 2026-05-07 05:03 | -61.89132 | -144.84027 | 37002 ft | 526 kts | 100° |
| 2026-05-07 05:04 | -61.89877 | -144.68567 | 37017 ft | 526 kts | 100° |
| 2026-05-07 05:04 | -61.90601 | -144.53193 | 37007 ft | 526 kts | 99° |
| 2026-05-07 05:05 | -61.91312 | -144.37717 | 37006 ft | 526 kts | 99° |
| 2026-05-07 05:05 | -61.92004 | -144.22244 | 37016 ft | 527 kts | 99° |
| 2026-05-07 05:06 | -61.92680 | -144.06747 | 37003 ft | 527 kts | 99° |
| 2026-05-07 05:06 | -61.93338 | -143.91268 | 37007 ft | 527 kts | 99° |
| 2026-05-07 05:07 | -61.93973 | -143.75904 | 37021 ft | 527 kts | 99° |
| 2026-05-07 05:07 | -61.94567 | -143.61124 | 37029 ft | 527 kts | 99° |
| 2026-05-07 05:08 | -61.95171 | -143.45686 | 37017 ft | 527 kts | 98° |
| 2026-05-07 05:08 | -61.95759 | -143.30166 | 37026 ft | 527 kts | 98° |
| 2026-05-07 05:09 | -61.96329 | -143.14685 | 37028 ft | 527 kts | 98° |
| 2026-05-07 05:09 | -61.96887 | -142.99061 | 37015 ft | 527 kts | 98° |
| 2026-05-07 05:10 | -61.97421 | -142.83603 | 37029 ft | 527 kts | 98° |
| 2026-05-07 05:10 | -61.97941 | -142.68072 | 37024 ft | 527 kts | 98° |
| 2026-05-07 05:11 | -61.98444 | -142.52507 | 37018 ft | 527 kts | 98° |
| 2026-05-07 05:11 | -61.98893 | -142.38144 | 37033 ft | 526 kts | 97° |
| 2026-05-07 05:12 | -61.99337 | -142.23415 | 37046 ft | 526 kts | 97° |
| 2026-05-07 05:12 | -61.99771 | -142.07892 | 37035 ft | 526 kts | 97° |
| 2026-05-07 05:13 | -62.00084 | -141.92413 | 37018 ft | 527 kts | 96° |
| 2026-05-07 05:13 | -62.00322 | -141.76797 | 37025 ft | 527 kts | 95° |
| 2026-05-07 05:14 | -62.00515 | -141.61184 | 37029 ft | 527 kts | 95° |
| 2026-05-07 05:14 | -62.00687 | -141.45573 | 37017 ft | 528 kts | 95° |
| 2026-05-07 05:15 | -62.00845 | -141.29935 | 37029 ft | 528 kts | 95° |
| 2026-05-07 05:15 | -62.00985 | -141.14244 | 37024 ft | 529 kts | 95° |
| 2026-05-07 05:16 | -62.01105 | -140.98723 | 37017 ft | 529 kts | 95° |
| 2026-05-07 05:16 | -62.01209 | -140.83045 | 37038 ft | 529 kts | 95° |
| 2026-05-07 05:17 | -62.01293 | -140.67369 | 37067 ft | 529 kts | 94° |
| 2026-05-07 05:17 | -62.01359 | -140.51723 | 37080 ft | 529 kts | 94° |
| 2026-05-07 05:18 | -62.01408 | -140.36056 | 37074 ft | 529 kts | 94° |
| 2026-05-07 05:18 | -62.01440 | -140.20393 | 37070 ft | 529 kts | 94° |
| 2026-05-07 05:19 | -62.01454 | -140.06742 | 37082 ft | 529 kts | 94° |
| 2026-05-07 05:19 | -62.01453 | -139.91051 | 37075 ft | 529 kts | 94° |
| 2026-05-07 05:20 | -62.01434 | -139.75459 | 37073 ft | 529 kts | 94° |
| 2026-05-07 05:20 | -62.01397 | -139.59745 | 37084 ft | 529 kts | 94° |
| 2026-05-07 05:21 | -62.01310 | -139.36284 | 37070 ft | 529 kts | 93° |
| 2026-05-07 05:22 | -62.01229 | -139.20663 | 37082 ft | 529 kts | 93° |
| 2026-05-07 05:22 | -62.01130 | -139.04981 | 37082 ft | 529 kts | 93° |
| 2026-05-07 05:23 | -62.01013 | -138.89303 | 37070 ft | 529 kts | 93° |
| 2026-05-07 05:23 | -62.00879 | -138.73707 | 37083 ft | 528 kts | 93° |
| 2026-05-07 05:24 | -62.00726 | -138.58040 | 37075 ft | 529 kts | 93° |
| 2026-05-07 05:24 | -62.00558 | -138.42551 | 37074 ft | 529 kts | 93° |
| 2026-05-07 05:25 | -62.00370 | -138.26802 | 37085 ft | 529 kts | 93° |
| 2026-05-07 05:25 | -62.00170 | -138.11110 | 37073 ft | 528 kts | 93° |
| 2026-05-07 05:26 | -61.99978 | -137.95452 | 37076 ft | 528 kts | 93° |
| 2026-05-07 05:26 | -61.99781 | -137.79898 | 37087 ft | 528 kts | 92° |
| 2026-05-07 05:27 | -61.99578 | -137.64245 | 37075 ft | 528 kts | 92° |
| 2026-05-07 05:27 | -61.99371 | -137.49301 | 37070 ft | 528 kts | 92° |
| 2026-05-07 05:28 | -61.99138 | -137.33663 | 37083 ft | 528 kts | 92° |
| 2026-05-07 05:28 | -61.98885 | -137.18019 | 37078 ft | 528 kts | 92° |
| 2026-05-07 05:29 | -61.98616 | -137.02407 | 37073 ft | 528 kts | 92° |
| 2026-05-07 05:29 | -61.98331 | -136.86882 | 37085 ft | 528 kts | 91° |
| 2026-05-07 05:30 | -61.98026 | -136.71262 | 37073 ft | 528 kts | 91° |
| 2026-05-07 05:30 | -61.97703 | -136.55639 | 37076 ft | 528 kts | 91° |
| 2026-05-07 05:31 | -61.97365 | -136.40017 | 37103 ft | 528 kts | 91° |
| 2026-05-07 05:31 | -61.97011 | -136.24547 | 37124 ft | 527 kts | 91° |
| 2026-05-07 05:32 | -61.96636 | -136.08977 | 37132 ft | 527 kts | 90° |
| 2026-05-07 05:32 | -61.96251 | -135.93662 | 37121 ft | 527 kts | 90° |
| 2026-05-07 05:33 | -61.95842 | -135.78109 | 37123 ft | 527 kts | 90° |
| 2026-05-07 05:33 | -61.95418 | -135.62610 | 37133 ft | 527 kts | 90° |
| 2026-05-07 05:34 | -61.94972 | -135.46983 | 37120 ft | 527 kts | 90° |
| 2026-05-07 05:34 | -61.94515 | -135.31589 | 37127 ft | 527 kts | 90° |
| 2026-05-07 05:35 | -61.94032 | -135.15954 | 37131 ft | 527 kts | 90° |
| 2026-05-07 05:35 | -61.93536 | -135.00391 | 37119 ft | 527 kts | 89° |
| 2026-05-07 05:36 | -61.93023 | -134.84885 | 37129 ft | 526 kts | 89° |
| 2026-05-07 05:36 | -61.92498 | -134.69538 | 37129 ft | 525 kts | 89° |
| 2026-05-07 05:37 | -61.91950 | -134.54037 | 37118 ft | 525 kts | 89° |
| 2026-05-07 05:37 | -61.91386 | -134.38565 | 37133 ft | 524 kts | 89° |
| 2026-05-07 05:38 | -61.90805 | -134.23137 | 37136 ft | 523 kts | 88° |
| 2026-05-07 05:38 | -61.90211 | -134.07829 | 37125 ft | 523 kts | 88° |
| 2026-05-07 05:39 | -61.89598 | -133.92462 | 37137 ft | 523 kts | 88° |
| 2026-05-07 05:39 | -61.88967 | -133.77070 | 37132 ft | 522 kts | 88° |
| 2026-05-07 05:40 | -61.88324 | -133.61811 | 37126 ft | 522 kts | 88° |
| 2026-05-07 05:40 | -61.87661 | -133.46426 | 37138 ft | 523 kts | 88° |
| 2026-05-07 05:41 | -61.86984 | -133.31162 | 37127 ft | 523 kts | 87° |
| 2026-05-07 05:41 | -61.86284 | -133.15802 | 37127 ft | 523 kts | 87° |
| 2026-05-07 05:42 | -61.85572 | -133.00560 | 37138 ft | 523 kts | 87° |
| 2026-05-07 05:42 | -61.84835 | -132.85176 | 37130 ft | 523 kts | 86° |
| 2026-05-07 05:43 | -61.84086 | -132.69860 | 37126 ft | 522 kts | 86° |
| 2026-05-07 05:43 | -61.83322 | -132.54567 | 37139 ft | 522 kts | 86° |
| 2026-05-07 05:44 | -61.82672 | -132.41837 | 37130 ft | 521 kts | 86° |
| 2026-05-07 05:44 | -61.81746 | -132.24088 | 37130 ft | 521 kts | 86° |
| 2026-05-07 05:45 | -61.80930 | -132.08849 | 37138 ft | 520 kts | 85° |
| 2026-05-07 05:45 | -61.80240 | -131.96204 | 37128 ft | 520 kts | 85° |
| 2026-05-07 05:46 | -61.79393 | -131.80962 | 37130 ft | 520 kts | 85° |
| 2026-05-07 05:46 | -61.78538 | -131.65867 | 37140 ft | 520 kts | 85° |
| 2026-05-07 05:47 | -61.77667 | -131.50814 | 37127 ft | 520 kts | 85° |
| 2026-05-07 05:47 | -61.76765 | -131.35497 | 37126 ft | 520 kts | 85° |
| 2026-05-07 05:48 | -61.75860 | -131.20409 | 37139 ft | 520 kts | 85° |
| 2026-05-07 05:48 | -61.74930 | -131.05235 | 37128 ft | 520 kts | 84° |
| 2026-05-07 05:49 | -61.73982 | -130.90057 | 37128 ft | 520 kts | 84° |
| 2026-05-07 05:49 | -61.73028 | -130.75024 | 37137 ft | 520 kts | 84° |
| 2026-05-07 05:50 | -61.72049 | -130.59873 | 37125 ft | 520 kts | 84° |
| 2026-05-07 05:50 | -61.71055 | -130.44756 | 37132 ft | 519 kts | 83° |
| 2026-05-07 05:51 | -61.70051 | -130.29777 | 37137 ft | 518 kts | 83° |
| 2026-05-07 05:51 | -61.69028 | -130.14727 | 37125 ft | 518 kts | 83° |
| 2026-05-07 05:52 | -61.67993 | -129.99795 | 37135 ft | 518 kts | 83° |
| 2026-05-07 05:52 | -61.66987 | -129.85471 | 37140 ft | 518 kts | 83° |
| 2026-05-07 05:53 | -61.65915 | -129.70438 | 37125 ft | 517 kts | 83° |
| 2026-05-07 05:53 | -61.64834 | -129.55543 | 37131 ft | 517 kts | 83° |
| 2026-05-07 05:54 | -61.63730 | -129.40574 | 37137 ft | 518 kts | 82° |
| 2026-05-07 05:54 | -61.62605 | -129.25571 | 37124 ft | 518 kts | 82° |
| 2026-05-07 05:55 | -61.61469 | -129.10626 | 37135 ft | 518 kts | 82° |
| 2026-05-07 05:55 | -61.60316 | -128.95703 | 37132 ft | 518 kts | 82° |
| 2026-05-07 05:56 | -61.59152 | -128.80824 | 37122 ft | 518 kts | 82° |
| 2026-05-07 05:56 | -61.57964 | -128.65863 | 37137 ft | 518 kts | 82° |
| 2026-05-07 05:57 | -61.56767 | -128.51004 | 37129 ft | 517 kts | 81° |
| 2026-05-07 05:57 | -61.55619 | -128.36941 | 37123 ft | 517 kts | 81° |
| 2026-05-07 05:58 | -61.54389 | -128.22092 | 37137 ft | 516 kts | 81° |
| 2026-05-07 05:58 | -61.53143 | -128.07270 | 37130 ft | 516 kts | 81° |
| 2026-05-07 05:59 | -61.51886 | -127.92497 | 37123 ft | 516 kts | 81° |
| 2026-05-07 05:59 | -61.50608 | -127.77686 | 37137 ft | 516 kts | 81° |
| 2026-05-07 06:00 | -61.49314 | -127.62892 | 37128 ft | 516 kts | 80° |
| 2026-05-07 06:00 | -61.48006 | -127.48139 | 37128 ft | 516 kts | 80° |
| 2026-05-07 06:01 | -61.46687 | -127.33449 | 37139 ft | 516 kts | 80° |
| 2026-05-07 06:01 | -61.45345 | -127.18696 | 37123 ft | 516 kts | 80° |
| 2026-05-07 06:02 | -61.44000 | -127.04086 | 37132 ft | 516 kts | 79° |
| 2026-05-07 06:02 | -61.42813 | -126.91325 | 37140 ft | 516 kts | 79° |
| 2026-05-07 06:03 | -61.41422 | -126.76556 | 37125 ft | 516 kts | 79° |
| 2026-05-07 06:03 | -61.40025 | -126.61924 | 37131 ft | 515 kts | 79° |
| 2026-05-07 06:04 | -61.38607 | -126.47252 | 37133 ft | 515 kts | 79° |
| 2026-05-07 06:04 | -61.37174 | -126.32580 | 37124 ft | 515 kts | 79° |
| 2026-05-07 06:05 | -61.35727 | -126.17921 | 37136 ft | 515 kts | 78° |
| 2026-05-07 06:05 | -61.34264 | -126.03309 | 37128 ft | 515 kts | 78° |
| 2026-05-07 06:06 | -61.32796 | -125.88817 | 37127 ft | 514 kts | 78° |
| 2026-05-07 06:06 | -61.31299 | -125.74198 | 37139 ft | 514 kts | 78° |
| 2026-05-07 06:07 | -61.29835 | -125.60058 | 37125 ft | 514 kts | 78° |
| 2026-05-07 06:07 | -61.28295 | -125.45366 | 37124 ft | 514 kts | 78° |
| 2026-05-07 06:08 | -61.26736 | -125.30635 | 37137 ft | 514 kts | 77° |
| 2026-05-07 06:08 | -61.25184 | -125.16119 | 37125 ft | 514 kts | 77° |
| 2026-05-07 06:09 | -61.23622 | -125.01691 | 37128 ft | 514 kts | 77° |
| 2026-05-07 06:09 | -61.22038 | -124.87213 | 37136 ft | 514 kts | 77° |
| 2026-05-07 06:10 | -61.20440 | -124.72763 | 37123 ft | 514 kts | 77° |
| 2026-05-07 06:10 | -61.18835 | -124.58408 | 37133 ft | 514 kts | 76° |
| 2026-05-07 06:11 | -61.17196 | -124.43889 | 37135 ft | 514 kts | 76° |
| 2026-05-07 06:11 | -61.15551 | -124.29479 | 37122 ft | 514 kts | 76° |
| 2026-05-07 06:12 | -61.13949 | -124.15588 | 37131 ft | 513 kts | 76° |
| 2026-05-07 06:12 | -61.12346 | -124.01770 | 37140 ft | 513 kts | 75° |
| 2026-05-07 06:13 | -61.10645 | -123.87313 | 37127 ft | 513 kts | 75° |
| 2026-05-07 06:13 | -61.08958 | -123.73113 | 37127 ft | 512 kts | 75° |
| 2026-05-07 06:14 | -61.07241 | -123.58827 | 37136 ft | 511 kts | 74° |
| 2026-05-07 06:14 | -61.05513 | -123.44577 | 37125 ft | 511 kts | 74° |
| 2026-05-07 06:15 | -61.03773 | -123.30349 | 37127 ft | 511 kts | 74° |
| 2026-05-07 06:15 | -61.02027 | -123.16217 | 37135 ft | 511 kts | 74° |
| 2026-05-07 06:16 | -61.00228 | -123.02031 | 37123 ft | 511 kts | 73° |
| 2026-05-07 06:16 | -60.98393 | -122.87877 | 37131 ft | 511 kts | 73° |
| 2026-05-07 06:17 | -60.96522 | -122.73722 | 37135 ft | 511 kts | 73° |
| 2026-05-07 06:17 | -60.94723 | -122.60292 | 37123 ft | 510 kts | 72° |
| 2026-05-07 06:18 | -60.92813 | -122.46185 | 37128 ft | 510 kts | 72° |
| 2026-05-07 06:18 | -60.90895 | -122.32137 | 37135 ft | 510 kts | 72° |
| 2026-05-07 06:19 | -60.88964 | -122.18116 | 37122 ft | 510 kts | 72° |
| 2026-05-07 06:19 | -60.87151 | -122.05070 | 37127 ft | 510 kts | 72° |
| 2026-05-07 06:20 | -60.85190 | -121.91069 | 37134 ft | 510 kts | 71° |
| 2026-05-07 06:20 | -60.83220 | -121.77124 | 37124 ft | 509 kts | 71° |
| 2026-05-07 06:21 | -60.81234 | -121.63188 | 37128 ft | 509 kts | 71° |
| 2026-05-07 06:21 | -60.79244 | -121.49337 | 37134 ft | 509 kts | 71° |
| 2026-05-07 06:22 | -60.77241 | -121.35510 | 37121 ft | 508 kts | 71° |
| 2026-05-07 06:22 | -60.74301 | -121.15429 | 37132 ft | 508 kts | 70° |
| 2026-05-07 06:23 | -60.72252 | -121.01578 | 37131 ft | 508 kts | 70° |
| 2026-05-07 06:23 | -60.70196 | -120.87791 | 37121 ft | 507 kts | 70° |
| 2026-05-07 06:24 | -60.68141 | -120.74125 | 37134 ft | 507 kts | 70° |
| 2026-05-07 06:24 | -60.66054 | -120.60354 | 37127 ft | 506 kts | 70° |
| 2026-05-07 06:25 | -60.63962 | -120.46655 | 37123 ft | 506 kts | 70° |
| 2026-05-07 06:25 | -60.61865 | -120.33041 | 37136 ft | 506 kts | 69° |
| 2026-05-07 06:26 | -60.59742 | -120.19364 | 37124 ft | 506 kts | 69° |
| 2026-05-07 06:26 | -60.57609 | -120.05720 | 37126 ft | 505 kts | 69° |
| 2026-05-07 06:27 | -60.55457 | -119.92074 | 37137 ft | 505 kts | 69° |
| 2026-05-07 06:27 | -60.53306 | -119.78529 | 37123 ft | 505 kts | 69° |
| 2026-05-07 06:28 | -60.51131 | -119.64939 | 37127 ft | 505 kts | 69° |
| 2026-05-07 06:28 | -60.49317 | -119.53689 | 37135 ft | 504 kts | 68° |
| 2026-05-07 06:29 | -60.47128 | -119.40218 | 37122 ft | 504 kts | 68° |
| 2026-05-07 06:29 | -60.44921 | -119.26724 | 37128 ft | 504 kts | 68° |
| 2026-05-07 06:30 | -60.42704 | -119.13273 | 37132 ft | 503 kts | 68° |
| 2026-05-07 06:30 | -60.40485 | -118.99912 | 37120 ft | 502 kts | 67° |
| 2026-05-07 06:31 | -60.38245 | -118.86515 | 37131 ft | 502 kts | 67° |
| 2026-05-07 06:31 | -60.35992 | -118.73149 | 37129 ft | 501 kts | 67° |
| 2026-05-07 06:32 | -60.33786 | -118.60152 | 37119 ft | 501 kts | 67° |
| 2026-05-07 06:32 | -60.31469 | -118.46601 | 37128 ft | 501 kts | 66° |
| 2026-05-07 06:33 | -60.29179 | -118.33304 | 37131 ft | 500 kts | 66° |
| 2026-05-07 06:33 | -60.26898 | -118.20151 | 37120 ft | 500 kts | 66° |
| 2026-05-07 06:34 | -60.24588 | -118.06933 | 37132 ft | 499 kts | 66° |
| 2026-05-07 06:34 | -60.22276 | -117.93788 | 37126 ft | 499 kts | 66° |
| 2026-05-07 06:35 | -60.19948 | -117.80649 | 37122 ft | 499 kts | 66° |
| 2026-05-07 06:35 | -60.17597 | -117.67472 | 37134 ft | 499 kts | 65° |
| 2026-05-07 06:36 | -60.15256 | -117.54443 | 37121 ft | 499 kts | 65° |
| 2026-05-07 06:36 | -60.12888 | -117.41348 | 37127 ft | 498 kts | 65° |
| 2026-05-07 06:37 | -60.10539 | -117.28452 | 37132 ft | 498 kts | 65° |
| 2026-05-07 06:37 | -60.08203 | -117.15714 | 37122 ft | 498 kts | 65° |
| 2026-05-07 06:38 | -60.05810 | -117.02745 | 37123 ft | 497 kts | 64° |
| 2026-05-07 06:38 | -60.03398 | -116.89768 | 37133 ft | 497 kts | 64° |
| 2026-05-07 06:39 | -60.00989 | -116.76895 | 37119 ft | 496 kts | 64° |
| 2026-05-07 06:39 | -59.98556 | -116.63979 | 37130 ft | 496 kts | 64° |
| 2026-05-07 06:40 | -59.96125 | -116.51151 | 37126 ft | 496 kts | 64° |
| 2026-05-07 06:40 | -59.93667 | -116.38275 | 37118 ft | 496 kts | 64° |
| 2026-05-07 06:41 | -59.91197 | -116.25418 | 37132 ft | 495 kts | 63° |
| 2026-05-07 06:41 | -59.88721 | -116.12616 | 37124 ft | 495 kts | 63° |
| 2026-05-07 06:42 | -59.86367 | -116.00518 | 37118 ft | 495 kts | 63° |
| 2026-05-07 06:42 | -59.83849 | -115.87660 | 37129 ft | 495 kts | 63° |
| 2026-05-07 06:43 | -59.81338 | -115.74918 | 37131 ft | 494 kts | 63° |
| 2026-05-07 06:43 | -59.78835 | -115.62301 | 37118 ft | 494 kts | 63° |
| 2026-05-07 06:44 | -59.76294 | -115.49563 | 37129 ft | 494 kts | 63° |
| 2026-05-07 06:44 | -59.73747 | -115.36884 | 37126 ft | 494 kts | 62° |
| 2026-05-07 06:45 | -59.71190 | -115.24234 | 37119 ft | 493 kts | 62° |
| 2026-05-07 06:45 | -59.68644 | -115.11722 | 37132 ft | 492 kts | 62° |
| 2026-05-07 06:46 | -59.66072 | -114.99154 | 37121 ft | 492 kts | 62° |
| 2026-05-07 06:46 | -59.63509 | -114.86708 | 37122 ft | 491 kts | 62° |
| 2026-05-07 06:47 | -59.60940 | -114.74310 | 37133 ft | 490 kts | 61° |
| 2026-05-07 06:47 | -59.58459 | -114.62405 | 37127 ft | 489 kts | 61° |
| 2026-05-07 06:48 | -59.55854 | -114.49983 | 37121 ft | 488 kts | 61° |
| 2026-05-07 06:48 | -59.53241 | -114.37596 | 37150 ft | 487 kts | 60° |
| 2026-05-07 06:49 | -59.50656 | -114.25414 | 37164 ft | 487 kts | 60° |
| 2026-05-07 06:49 | -59.48031 | -114.13120 | 37165 ft | 486 kts | 60° |
| 2026-05-07 06:50 | -59.45394 | -114.00842 | 37154 ft | 485 kts | 60° |
| 2026-05-07 06:50 | -59.42775 | -113.88718 | 37165 ft | 484 kts | 60° |
| 2026-05-07 06:51 | -59.40132 | -113.76558 | 37165 ft | 484 kts | 60° |
| 2026-05-07 06:51 | -59.37480 | -113.64426 | 37154 ft | 483 kts | 59° |
| 2026-05-07 06:52 | -59.34957 | -113.52947 | 37163 ft | 483 kts | 59° |
| 2026-05-07 06:52 | -59.32262 | -113.40754 | 37168 ft | 483 kts | 59° |
| 2026-05-07 06:53 | -59.29579 | -113.28688 | 37156 ft | 483 kts | 59° |
| 2026-05-07 06:53 | -59.26887 | -113.16648 | 37164 ft | 483 kts | 59° |
| 2026-05-07 06:54 | -59.24196 | -113.04679 | 37163 ft | 482 kts | 59° |
| 2026-05-07 06:54 | -59.21491 | -112.92714 | 37155 ft | 482 kts | 58° |
| 2026-05-07 06:55 | -59.18771 | -112.80758 | 37169 ft | 481 kts | 58° |
| 2026-05-07 06:55 | -59.16048 | -112.68849 | 37155 ft | 481 kts | 58° |
| 2026-05-07 06:56 | -59.13324 | -112.57007 | 37155 ft | 480 kts | 58° |
| 2026-05-07 06:56 | -59.10581 | -112.45142 | 37168 ft | 480 kts | 58° |
| 2026-05-07 06:57 | -59.07961 | -112.33876 | 37159 ft | 480 kts | 58° |
| 2026-05-07 06:57 | -59.05154 | -112.21868 | 37153 ft | 480 kts | 58° |
| 2026-05-07 06:58 | -59.02380 | -112.10085 | 37167 ft | 479 kts | 57° |
| 2026-05-07 06:58 | -58.99581 | -111.98414 | 37160 ft | 479 kts | 57° |
| 2026-05-07 06:59 | -58.96761 | -111.86784 | 37157 ft | 478 kts | 56° |
| 2026-05-07 06:59 | -58.93897 | -111.75116 | 37168 ft | 477 kts | 56° |
| 2026-05-07 07:00 | -58.91051 | -111.63602 | 37154 ft | 476 kts | 56° |
| 2026-05-07 07:00 | -58.88180 | -111.52042 | 37157 ft | 475 kts | 56° |
| 2026-05-07 07:01 | -58.85303 | -111.40526 | 37167 ft | 475 kts | 56° |
| 2026-05-07 07:01 | -58.82438 | -111.29119 | 37154 ft | 474 kts | 56° |
| 2026-05-07 07:02 | -58.80031 | -111.19580 | 37157 ft | 474 kts | 56° |
| 2026-05-07 07:02 | -58.77042 | -111.07792 | 37160 ft | 474 kts | 56° |
| 2026-05-07 07:03 | -58.74134 | -110.96386 | 37144 ft | 474 kts | 56° |
| 2026-05-07 07:03 | -58.71219 | -110.85007 | 37146 ft | 473 kts | 56° |
| 2026-05-07 07:04 | -58.68304 | -110.73686 | 37154 ft | 473 kts | 56° |
| 2026-05-07 07:04 | -58.65370 | -110.62356 | 37140 ft | 473 kts | 55° |
| 2026-05-07 07:05 | -58.62435 | -110.51073 | 37149 ft | 472 kts | 55° |
| 2026-05-07 07:05 | -58.59484 | -110.39779 | 37157 ft | 472 kts | 55° |
| 2026-05-07 07:06 | -58.56552 | -110.28619 | 37140 ft | 472 kts | 55° |
| 2026-05-07 07:06 | -58.53586 | -110.17390 | 37150 ft | 471 kts | 55° |
| 2026-05-07 07:07 | -58.50900 | -110.07263 | 37157 ft | 471 kts | 55° |
| 2026-05-07 07:07 | -58.47834 | -109.95767 | 37143 ft | 471 kts | 55° |
| 2026-05-07 07:08 | -58.44846 | -109.84616 | 37142 ft | 471 kts | 55° |
| 2026-05-07 07:08 | -58.41871 | -109.73565 | 37154 ft | 470 kts | 55° |
| 2026-05-07 07:09 | -58.38865 | -109.62461 | 37141 ft | 470 kts | 54° |
| 2026-05-07 07:09 | -58.35857 | -109.51401 | 37148 ft | 470 kts | 54° |
| 2026-05-07 07:10 | -58.32955 | -109.40779 | 37158 ft | 470 kts | 54° |
| 2026-05-07 07:10 | -58.30038 | -109.30149 | 37142 ft | 470 kts | 54° |
| 2026-05-07 07:11 | -58.27019 | -109.19198 | 37117 ft | 469 kts | 54° |
| 2026-05-07 07:11 | -58.23978 | -109.08221 | 37106 ft | 468 kts | 54° |
| 2026-05-07 07:12 | -58.21055 | -108.97721 | 37115 ft | 467 kts | 54° |
| 2026-05-07 07:12 | -58.18047 | -108.86965 | 37119 ft | 467 kts | 54° |
| 2026-05-07 07:13 | -58.15005 | -108.76147 | 37105 ft | 467 kts | 54° |
| 2026-05-07 07:13 | -58.11943 | -108.65306 | 37113 ft | 466 kts | 54° |
| 2026-05-07 07:14 | -58.08877 | -108.54497 | 37120 ft | 466 kts | 54° |
| 2026-05-07 07:14 | -58.05806 | -108.43727 | 37105 ft | 466 kts | 54° |
| 2026-05-07 07:15 | -58.02740 | -108.33022 | 37112 ft | 466 kts | 54° |
| 2026-05-07 07:15 | -57.99650 | -108.22283 | 37115 ft | 466 kts | 54° |
| 2026-05-07 07:16 | -57.96555 | -108.11574 | 37103 ft | 466 kts | 54° |
| 2026-05-07 07:16 | -57.93958 | -108.02627 | 37111 ft | 466 kts | 54° |
| 2026-05-07 07:17 | -57.90851 | -107.91965 | 37118 ft | 466 kts | 54° |
| 2026-05-07 07:17 | -57.87729 | -107.81305 | 37105 ft | 466 kts | 54° |
| 2026-05-07 07:18 | -57.84593 | -107.70646 | 37110 ft | 466 kts | 54° |
| 2026-05-07 07:18 | -57.81450 | -107.60013 | 37115 ft | 466 kts | 54° |
| 2026-05-07 07:19 | -57.78297 | -107.49397 | 37103 ft | 466 kts | 54° |
| 2026-05-07 07:19 | -57.75317 | -107.39407 | 37109 ft | 466 kts | 54° |
| 2026-05-07 07:20 | -57.72137 | -107.28798 | 37116 ft | 467 kts | 54° |
| 2026-05-07 07:20 | -57.68950 | -107.18201 | 37102 ft | 467 kts | 54° |
| 2026-05-07 07:21 | -57.65755 | -107.07625 | 37112 ft | 467 kts | 54° |
| 2026-05-07 07:21 | -57.62549 | -106.97065 | 37111 ft | 467 kts | 54° |
| 2026-05-07 07:22 | -57.59387 | -106.86698 | 37102 ft | 468 kts | 53° |
| 2026-05-07 07:22 | -57.56340 | -106.76754 | 37107 ft | 468 kts | 53° |
| 2026-05-07 07:23 | -57.53098 | -106.66218 | 37116 ft | 468 kts | 53° |
| 2026-05-07 07:23 | -57.49860 | -106.55737 | 37103 ft | 467 kts | 53° |
| 2026-05-07 07:24 | -57.46607 | -106.45257 | 37111 ft | 467 kts | 53° |
| 2026-05-07 07:24 | -57.43379 | -106.34902 | 37114 ft | 466 kts | 53° |
| 2026-05-07 07:25 | -57.38479 | -106.19279 | 37106 ft | 466 kts | 53° |
| 2026-05-07 07:26 | -57.35234 | -106.08987 | 37115 ft | 465 kts | 53° |
| 2026-05-07 07:26 | -57.31945 | -105.98602 | 37102 ft | 465 kts | 53° |
| 2026-05-07 07:27 | -57.28666 | -105.88286 | 37109 ft | 466 kts | 53° |
| 2026-05-07 07:27 | -57.25514 | -105.78413 | 37114 ft | 466 kts | 53° |
| 2026-05-07 07:28 | -57.22200 | -105.68083 | 37102 ft | 466 kts | 53° |
| 2026-05-07 07:28 | -57.18989 | -105.58119 | 37103 ft | 467 kts | 53° |
| 2026-05-07 07:29 | -57.15721 | -105.48012 | 37453 ft | 465 kts | 53° |
| 2026-05-07 07:29 | -57.14086 | -105.42972 | 37774 ft | 464 kts | 53° |
| 2026-05-07 07:29 | -57.12424 | -105.37862 | 37935 ft | 468 kts | 53° |
| 2026-05-07 07:29 | -57.10736 | -105.32691 | 38103 ft | 472 kts | 52° |
| 2026-05-07 07:30 | -57.09044 | -105.27512 | 38373 ft | 473 kts | 52° |
| 2026-05-07 07:30 | -57.07371 | -105.22397 | 38739 ft | 471 kts | 52° |
| 2026-05-07 07:30 | -57.05683 | -105.17246 | 39069 ft | 471 kts | 52° |
| 2026-05-07 07:30 | -57.03986 | -105.12085 | 39311 ft | 473 kts | 52° |
| 2026-05-07 07:31 | -57.02294 | -105.06889 | 39522 ft | 475 kts | 52° |
| 2026-05-07 07:31 | -57.00609 | -105.01679 | 39731 ft | 477 kts | 53° |
| 2026-05-07 07:31 | -56.98910 | -104.96414 | 39973 ft | 478 kts | 53° |
| 2026-05-07 07:31 | -56.97214 | -104.91143 | 40207 ft | 479 kts | 53° |
| 2026-05-07 07:32 | -56.95529 | -104.85890 | 40436 ft | 480 kts | 53° |
| 2026-05-07 07:32 | -56.93847 | -104.80638 | 40651 ft | 481 kts | 53° |
| 2026-05-07 07:32 | -56.92154 | -104.75348 | 40894 ft | 481 kts | 53° |
| 2026-05-07 07:32 | -56.90472 | -104.70093 | 41066 ft | 482 kts | 53° |
| 2026-05-07 07:33 | -56.88753 | -104.64732 | 41126 ft | 484 kts | 53° |
| 2026-05-07 07:33 | -56.85355 | -104.54168 | 41100 ft | 484 kts | 53° |
| 2026-05-07 07:34 | -56.81934 | -104.43586 | 41106 ft | 484 kts | 53° |
| 2026-05-07 07:34 | -56.78492 | -104.32988 | 41111 ft | 484 kts | 53° |
| 2026-05-07 07:35 | -56.75048 | -104.22434 | 41098 ft | 484 kts | 53° |
| 2026-05-07 07:35 | -56.71618 | -104.11979 | 41108 ft | 484 kts | 53° |
| 2026-05-07 07:36 | -56.68167 | -104.01502 | 41109 ft | 484 kts | 52° |
| 2026-05-07 07:36 | -56.64675 | -103.90943 | 41097 ft | 484 kts | 52° |
| 2026-05-07 07:37 | -56.61238 | -103.80591 | 41109 ft | 484 kts | 52° |
| 2026-05-07 07:37 | -56.57724 | -103.70054 | 41111 ft | 484 kts | 52° |
| 2026-05-07 07:38 | -56.54342 | -103.59956 | 41097 ft | 484 kts | 52° |
| 2026-05-07 07:38 | -56.50844 | -103.49545 | 41103 ft | 484 kts | 52° |
| 2026-05-07 07:39 | -56.47324 | -103.39117 | 41110 ft | 484 kts | 52° |
| 2026-05-07 07:39 | -56.43799 | -103.28726 | 41097 ft | 484 kts | 52° |
| 2026-05-07 07:40 | -56.40289 | -103.18426 | 41107 ft | 484 kts | 52° |
| 2026-05-07 07:40 | -56.36745 | -103.08082 | 41105 ft | 484 kts | 52° |
| 2026-05-07 07:41 | -56.33186 | -102.97735 | 41097 ft | 484 kts | 52° |
| 2026-05-07 07:41 | -56.29654 | -102.87505 | 41110 ft | 483 kts | 52° |
| 2026-05-07 07:42 | -56.26130 | -102.77340 | 41100 ft | 483 kts | 51° |
| 2026-05-07 07:42 | -56.22525 | -102.66981 | 41099 ft | 483 kts | 51° |
| 2026-05-07 07:43 | -56.18970 | -102.56807 | 41110 ft | 483 kts | 52° |
| 2026-05-07 07:43 | -56.15384 | -102.46584 | 41095 ft | 483 kts | 51° |
| 2026-05-07 07:44 | -56.11789 | -102.36385 | 41105 ft | 483 kts | 51° |
| 2026-05-07 07:44 | -56.08203 | -102.26256 | 41105 ft | 484 kts | 51° |
| 2026-05-07 07:45 | -56.04586 | -102.16082 | 41095 ft | 483 kts | 51° |
| 2026-05-07 07:45 | -56.00972 | -102.05957 | 41108 ft | 483 kts | 51° |
| 2026-05-07 07:46 | -55.97339 | -101.95826 | 41099 ft | 483 kts | 51° |
| 2026-05-07 07:46 | -55.93720 | -101.85783 | 41076 ft | 483 kts | 51° |
| 2026-05-07 07:47 | -55.90080 | -101.75714 | 41061 ft | 483 kts | 51° |
| 2026-05-07 07:47 | -55.86415 | -101.65618 | 41059 ft | 484 kts | 51° |
| 2026-05-07 07:48 | -55.82747 | -101.55556 | 41071 ft | 484 kts | 51° |
| 2026-05-07 07:48 | -55.79075 | -101.45511 | 41061 ft | 484 kts | 51° |
| 2026-05-07 07:49 | -55.75420 | -101.35556 | 41060 ft | 485 kts | 50° |
| 2026-05-07 07:49 | -55.71719 | -101.25527 | 41070 ft | 485 kts | 50° |
| 2026-05-07 07:50 | -55.68024 | -101.15555 | 41058 ft | 485 kts | 50° |
| 2026-05-07 07:50 | -55.64303 | -101.05559 | 41063 ft | 486 kts | 50° |
| 2026-05-07 07:51 | -55.60568 | -100.95559 | 41068 ft | 486 kts | 50° |
| 2026-05-07 07:51 | -55.56854 | -100.85653 | 41056 ft | 486 kts | 50° |
| 2026-05-07 07:52 | -55.53116 | -100.75723 | 41068 ft | 486 kts | 50° |
| 2026-05-07 07:52 | -55.49348 | -100.65757 | 41066 ft | 487 kts | 50° |
| 2026-05-07 07:53 | -55.45596 | -100.55876 | 41064 ft | 487 kts | 50° |
| 2026-05-07 07:53 | -55.41819 | -100.45967 | 41079 ft | 487 kts | 49° |
| 2026-05-07 07:54 | -55.38037 | -100.36083 | 41069 ft | 487 kts | 49° |
| 2026-05-07 07:54 | -55.34236 | -100.26194 | 41070 ft | 487 kts | 49° |
| 2026-05-07 07:55 | -55.30439 | -100.16350 | 41079 ft | 487 kts | 49° |
| 2026-05-07 07:55 | -55.26659 | -100.06591 | 41065 ft | 487 kts | 49° |
| 2026-05-07 07:56 | -55.22839 | -99.96768 | 41074 ft | 487 kts | 49° |
| 2026-05-07 07:56 | -55.19016 | -99.86973 | 41076 ft | 487 kts | 49° |
| 2026-05-07 07:57 | -55.15215 | -99.77277 | 41063 ft | 487 kts | 49° |
| 2026-05-07 07:57 | -55.11366 | -99.67496 | 41077 ft | 487 kts | 48° |
| 2026-05-07 07:58 | -55.07512 | -99.57741 | 41072 ft | 487 kts | 48° |
| 2026-05-07 07:58 | -55.03655 | -99.48017 | 41066 ft | 487 kts | 48° |
| 2026-05-07 07:59 | -54.99784 | -99.38295 | 41078 ft | 488 kts | 48° |
| 2026-05-07 07:59 | -54.95907 | -99.28597 | 41065 ft | 488 kts | 48° |
| 2026-05-07 08:00 | -54.92039 | -99.18961 | 41073 ft | 488 kts | 48° |
| 2026-05-07 08:00 | -54.88164 | -99.09339 | 41076 ft | 488 kts | 47° |
| 2026-05-07 08:01 | -54.84235 | -98.99625 | 41064 ft | 488 kts | 47° |
| 2026-05-07 08:01 | -54.80327 | -98.90002 | 41077 ft | 488 kts | 47° |
| 2026-05-07 08:02 | -54.76436 | -98.80455 | 41072 ft | 488 kts | 47° |
| 2026-05-07 08:02 | -54.72944 | -98.71919 | 41060 ft | 488 kts | 47° |
| 2026-05-07 08:03 | -54.69005 | -98.62326 | 41071 ft | 488 kts | 47° |
| 2026-05-07 08:03 | -54.65089 | -98.52828 | 41070 ft | 488 kts | 47° |
| 2026-05-07 08:04 | -54.61144 | -98.43295 | 41061 ft | 488 kts | 47° |
| 2026-05-07 08:04 | -54.57189 | -98.33772 | 41074 ft | 488 kts | 46° |
| 2026-05-07 08:05 | -54.53253 | -98.24329 | 41065 ft | 488 kts | 46° |
| 2026-05-07 08:05 | -54.49292 | -98.14865 | 41085 ft | 487 kts | 46° |
| 2026-05-07 08:06 | -54.45315 | -98.05398 | 41111 ft | 487 kts | 46° |
| 2026-05-07 08:06 | -54.41336 | -97.95963 | 41124 ft | 487 kts | 46° |
| 2026-05-07 08:07 | -54.37366 | -97.86587 | 41117 ft | 487 kts | 46° |
| 2026-05-07 08:07 | -54.34033 | -97.78739 | 41111 ft | 487 kts | 46° |
| 2026-05-07 08:08 | -54.30037 | -97.69367 | 41124 ft | 487 kts | 46° |
| 2026-05-07 08:08 | -54.26031 | -97.60002 | 41119 ft | 487 kts | 46° |
| 2026-05-07 08:09 | -54.22026 | -97.50676 | 41114 ft | 486 kts | 45° |
| 2026-05-07 08:09 | -54.18033 | -97.41418 | 41126 ft | 486 kts | 45° |
| 2026-05-07 08:10 | -54.14015 | -97.32135 | 41115 ft | 486 kts | 45° |
| 2026-05-07 08:10 | -54.09991 | -97.22869 | 41118 ft | 485 kts | 45° |
| 2026-05-07 08:11 | -54.05968 | -97.13641 | 41126 ft | 485 kts | 45° |
| 2026-05-07 08:11 | -54.01969 | -97.04459 | 41113 ft | 484 kts | 45° |
| 2026-05-07 08:12 | -53.98144 | -96.95579 | 41136 ft | 485 kts | 45° |
| 2026-05-07 08:12 | -53.94315 | -96.86650 | 41134 ft | 486 kts | 46° |
| 2026-05-07 08:13 | -53.90329 | -96.77351 | 41113 ft | 487 kts | 46° |
| 2026-05-07 08:13 | -53.86360 | -96.68121 | 41119 ft | 487 kts | 45° |
| 2026-05-07 08:14 | -53.82358 | -96.58844 | 41123 ft | 487 kts | 45° |
| 2026-05-07 08:14 | -53.78348 | -96.49575 | 41112 ft | 487 kts | 45° |
| 2026-05-07 08:15 | -53.74337 | -96.40341 | 41120 ft | 486 kts | 45° |
| 2026-05-07 08:15 | -53.70345 | -96.31187 | 41124 ft | 486 kts | 45° |
| 2026-05-07 08:16 | -53.66329 | -96.22012 | 41112 ft | 486 kts | 45° |
| 2026-05-07 08:16 | -53.62302 | -96.12846 | 41123 ft | 485 kts | 45° |
| 2026-05-07 08:17 | -53.58279 | -96.03725 | 41120 ft | 485 kts | 45° |
| 2026-05-07 08:17 | -53.54389 | -95.94941 | 41110 ft | 485 kts | 45° |
| 2026-05-07 08:18 | -53.50372 | -95.85893 | 41124 ft | 485 kts | 45° |
| 2026-05-07 08:18 | -53.46328 | -95.76818 | 41120 ft | 485 kts | 44° |
| 2026-05-07 08:19 | -53.42277 | -95.67762 | 41112 ft | 485 kts | 44° |
| 2026-05-07 08:19 | -53.38213 | -95.58709 | 41125 ft | 486 kts | 44° |
| 2026-05-07 08:20 | -53.34259 | -95.49931 | 41117 ft | 486 kts | 44° |
| 2026-05-07 08:20 | -53.30171 | -95.40885 | 41113 ft | 486 kts | 44° |
| 2026-05-07 08:21 | -53.26070 | -95.31851 | 41125 ft | 487 kts | 44° |
| 2026-05-07 08:21 | -53.21998 | -95.22908 | 41112 ft | 488 kts | 44° |
| 2026-05-07 08:22 | -53.17903 | -95.13944 | 41120 ft | 488 kts | 43° |
| 2026-05-07 08:22 | -53.13749 | -95.04883 | 41126 ft | 488 kts | 43° |
| 2026-05-07 08:23 | -53.09620 | -94.95911 | 41112 ft | 488 kts | 43° |
| 2026-05-07 08:23 | -53.05510 | -94.87012 | 41119 ft | 488 kts | 43° |
| 2026-05-07 08:24 | -53.01363 | -94.78064 | 41123 ft | 488 kts | 43° |
| 2026-05-07 08:24 | -52.97211 | -94.69135 | 41111 ft | 488 kts | 43° |
| 2026-05-07 08:25 | -52.93050 | -94.60219 | 41124 ft | 488 kts | 42° |
| 2026-05-07 08:25 | -52.88880 | -94.51326 | 41115 ft | 489 kts | 42° |
| 2026-05-07 08:26 | -52.82611 | -94.37995 | 41124 ft | 489 kts | 42° |
| 2026-05-07 08:26 | -52.78450 | -94.29191 | 41114 ft | 490 kts | 41° |
| 2026-05-07 08:27 | -52.74342 | -94.20527 | 41112 ft | 489 kts | 41° |
| 2026-05-07 08:27 | -52.70202 | -94.11824 | 41128 ft | 490 kts | 41° |
| 2026-05-07 08:28 | -52.65988 | -94.02999 | 41116 ft | 491 kts | 41° |
| 2026-05-07 08:28 | -52.61738 | -93.94128 | 41116 ft | 492 kts | 40° |
| 2026-05-07 08:29 | -52.57516 | -93.85347 | 41123 ft | 493 kts | 40° |
| 2026-05-07 08:29 | -52.53253 | -93.76513 | 41114 ft | 493 kts | 40° |
| 2026-05-07 08:30 | -52.48976 | -93.67681 | 41116 ft | 494 kts | 40° |
| 2026-05-07 08:30 | -52.44685 | -93.58850 | 41124 ft | 495 kts | 40° |
| 2026-05-07 08:31 | -52.40382 | -93.50022 | 41112 ft | 495 kts | 40° |
| 2026-05-07 08:31 | -52.36103 | -93.41273 | 41119 ft | 495 kts | 40° |
| 2026-05-07 08:32 | -52.31972 | -93.32856 | 41127 ft | 495 kts | 40° |
| 2026-05-07 08:32 | -52.27695 | -93.24174 | 41114 ft | 496 kts | 40° |
| 2026-05-07 08:33 | -52.23354 | -93.15391 | 41119 ft | 497 kts | 40° |
| 2026-05-07 08:33 | -52.19017 | -93.06647 | 41124 ft | 499 kts | 39° |
| 2026-05-07 08:34 | -52.14632 | -92.97837 | 41112 ft | 500 kts | 39° |
| 2026-05-07 08:34 | -52.10237 | -92.89036 | 41123 ft | 502 kts | 39° |
| 2026-05-07 08:35 | -52.05807 | -92.80195 | 41120 ft | 504 kts | 39° |
| 2026-05-07 08:35 | -52.01365 | -92.71365 | 41109 ft | 506 kts | 39° |
| 2026-05-07 08:36 | -51.96910 | -92.62539 | 41126 ft | 509 kts | 38° |
| 2026-05-07 08:36 | -51.92395 | -92.53624 | 41111 ft | 512 kts | 38° |
| 2026-05-07 08:37 | -51.87886 | -92.44749 | 41115 ft | 514 kts | 38° |
| 2026-05-07 08:37 | -51.83325 | -92.35804 | 41127 ft | 515 kts | 38° |
| 2026-05-07 08:38 | -51.78735 | -92.26837 | 41110 ft | 517 kts | 38° |
| 2026-05-07 08:38 | -51.74150 | -92.17908 | 41120 ft | 517 kts | 38° |
| 2026-05-07 08:39 | -51.69568 | -92.09010 | 41122 ft | 517 kts | 38° |
| 2026-05-07 08:39 | -51.64960 | -92.00092 | 41111 ft | 517 kts | 38° |
| 2026-05-07 08:40 | -51.60339 | -91.91189 | 41126 ft | 518 kts | 38° |
| 2026-05-07 08:40 | -51.55704 | -91.82290 | 41112 ft | 519 kts | 38° |
| 2026-05-07 08:41 | -51.51087 | -91.73458 | 41120 ft | 520 kts | 38° |
| 2026-05-07 08:41 | -51.46414 | -91.64549 | 41123 ft | 521 kts | 38° |
| 2026-05-07 08:42 | -51.41756 | -91.55698 | 41110 ft | 522 kts | 38° |
| 2026-05-07 08:42 | -51.37055 | -91.46794 | 41120 ft | 523 kts | 38° |
| 2026-05-07 08:43 | -51.32325 | -91.37869 | 41122 ft | 525 kts | 38° |
| 2026-05-07 08:43 | -51.27612 | -91.29007 | 41111 ft | 527 kts | 38° |
| 2026-05-07 08:44 | -51.22852 | -91.20087 | 41123 ft | 528 kts | 38° |
| 2026-05-07 08:44 | -51.18067 | -91.11150 | 41119 ft | 529 kts | 38° |
| 2026-05-07 08:45 | -51.13274 | -91.02231 | 41114 ft | 531 kts | 38° |
| 2026-05-07 08:45 | -51.08477 | -90.93334 | 41127 ft | 532 kts | 38° |
| 2026-05-07 08:46 | -51.03640 | -90.84395 | 41115 ft | 534 kts | 39° |
| 2026-05-07 08:46 | -50.98772 | -90.75432 | 41118 ft | 536 kts | 39° |
| 2026-05-07 08:47 | -50.93887 | -90.66466 | 41125 ft | 537 kts | 39° |
| 2026-05-07 08:47 | -50.89020 | -90.57565 | 41117 ft | 538 kts | 39° |
| 2026-05-07 08:48 | -50.84097 | -90.48592 | 41118 ft | 539 kts | 39° |
| 2026-05-07 08:48 | -50.79167 | -90.39639 | 41127 ft | 540 kts | 39° |
| 2026-05-07 08:49 | -50.74236 | -90.30717 | 41114 ft | 541 kts | 39° |
| 2026-05-07 08:49 | -50.69265 | -90.21753 | 41121 ft | 543 kts | 39° |
| 2026-05-07 08:50 | -50.64274 | -90.12785 | 41122 ft | 544 kts | 39° |
| 2026-05-07 08:50 | -50.59280 | -90.03843 | 41110 ft | 545 kts | 39° |
| 2026-05-07 08:51 | -50.54252 | -89.94873 | 41130 ft | 547 kts | 39° |
| 2026-05-07 08:51 | -50.49227 | -89.85938 | 41111 ft | 549 kts | 39° |
| 2026-05-07 08:52 | -50.44209 | -89.77045 | 41118 ft | 551 kts | 39° |
| 2026-05-07 08:52 | -50.39103 | -89.68027 | 41126 ft | 552 kts | 39° |
| 2026-05-07 08:53 | -50.34029 | -89.59095 | 41114 ft | 553 kts | 39° |
| 2026-05-07 08:53 | -50.28901 | -89.50101 | 41121 ft | 553 kts | 39° |
| 2026-05-07 08:54 | -50.24635 | -89.42644 | 41127 ft | 553 kts | 39° |
| 2026-05-07 08:54 | -50.19494 | -89.33689 | 41115 ft | 553 kts | 39° |
| 2026-05-07 08:55 | -50.13502 | -89.23290 | 41122 ft | 554 kts | 39° |
| 2026-05-07 08:55 | -50.09175 | -89.15806 | 41128 ft | 554 kts | 39° |
| 2026-05-07 08:56 | -50.04030 | -89.06936 | 41115 ft | 555 kts | 39° |
| 2026-05-07 08:56 | -49.98821 | -88.98050 | 41124 ft | 555 kts | 40° |
| 2026-05-07 08:57 | -49.93623 | -88.89257 | 41120 ft | 558 kts | 40° |
| 2026-05-07 08:57 | -49.88314 | -88.80333 | 41118 ft | 559 kts | 40° |
| 2026-05-07 08:58 | -49.83022 | -88.71474 | 41130 ft | 561 kts | 40° |
| 2026-05-07 08:58 | -49.77731 | -88.62645 | 41118 ft | 562 kts | 40° |
| 2026-05-07 08:59 | -49.72387 | -88.53763 | 41120 ft | 564 kts | 40° |
| 2026-05-07 08:59 | -49.67031 | -88.44890 | 41132 ft | 565 kts | 40° |
| 2026-05-07 09:00 | -49.61656 | -88.36012 | 41116 ft | 566 kts | 40° |
| 2026-05-07 09:00 | -49.56273 | -88.27153 | 41125 ft | 566 kts | 40° |
| 2026-05-07 09:01 | -49.50902 | -88.18345 | 41127 ft | 566 kts | 40° |
| 2026-05-07 09:01 | -49.45490 | -88.09501 | 41117 ft | 566 kts | 39° |
| 2026-05-07 09:02 | -49.40070 | -88.00677 | 41133 ft | 567 kts | 40° |
| 2026-05-07 09:02 | -49.34851 | -87.92212 | 41132 ft | 567 kts | 40° |
| 2026-05-07 09:03 | -49.29447 | -87.83471 | 41115 ft | 568 kts | 40° |
| 2026-05-07 09:03 | -49.23983 | -87.74660 | 41129 ft | 570 kts | 40° |
| 2026-05-07 09:04 | -49.18508 | -87.65865 | 41126 ft | 570 kts | 40° |
| 2026-05-07 09:04 | -49.13061 | -87.57145 | 41120 ft | 571 kts | 41° |
| 2026-05-07 09:05 | -49.07563 | -87.48369 | 41135 ft | 571 kts | 41° |
| 2026-05-07 09:05 | -49.02058 | -87.39615 | 41123 ft | 572 kts | 41° |
| 2026-05-07 09:06 | -48.96548 | -87.30885 | 41125 ft | 572 kts | 41° |
| 2026-05-07 09:06 | -48.91014 | -87.22145 | 41137 ft | 572 kts | 41° |
| 2026-05-07 09:07 | -48.85491 | -87.13454 | 41127 ft | 573 kts | 41° |
| 2026-05-07 09:07 | -48.80163 | -87.05096 | 41142 ft | 573 kts | 41° |
| 2026-05-07 09:08 | -48.74603 | -86.96405 | 41143 ft | 574 kts | 41° |
| 2026-05-07 09:08 | -48.69036 | -86.87731 | 41133 ft | 574 kts | 41° |
| 2026-05-07 09:09 | -48.63482 | -86.79106 | 41146 ft | 575 kts | 41° |
| 2026-05-07 09:09 | -48.57892 | -86.70455 | 41141 ft | 575 kts | 41° |
| 2026-05-07 09:10 | -48.52315 | -86.61852 | 41120 ft | 576 kts | 42° |
| 2026-05-07 09:10 | -48.46686 | -86.53197 | 41133 ft | 577 kts | 42° |
| 2026-05-07 09:11 | -48.41057 | -86.44570 | 41148 ft | 577 kts | 42° |
| 2026-05-07 09:11 | -48.35414 | -86.35954 | 41143 ft | 578 kts | 42° |
| 2026-05-07 09:12 | -48.29762 | -86.27345 | 41138 ft | 581 kts | 40° |
| 2026-05-07 09:12 | -48.24125 | -86.18748 | 41112 ft | 582 kts | 36° |
| 2026-05-07 09:13 | -48.18445 | -86.10189 | 41145 ft | 580 kts | 35° |
| 2026-05-07 09:13 | -48.12752 | -86.01635 | 41150 ft | 578 kts | 35° |
| 2026-05-07 09:14 | -48.07069 | -85.93108 | 41138 ft | 577 kts | 35° |
| 2026-05-07 09:14 | -48.01430 | -85.84667 | 41150 ft | 577 kts | 35° |
| 2026-05-07 09:15 | -47.95751 | -85.76195 | 41147 ft | 576 kts | 35° |
| 2026-05-07 09:15 | -47.90073 | -85.67749 | 41145 ft | 575 kts | 35° |
| 2026-05-07 09:16 | -47.84383 | -85.59313 | 41154 ft | 575 kts | 35° |
| 2026-05-07 09:16 | -47.78737 | -85.50971 | 41144 ft | 575 kts | 35° |
| 2026-05-07 09:17 | -47.73224 | -85.42856 | 41146 ft | 575 kts | 35° |
| 2026-05-07 09:17 | -47.67572 | -85.34561 | 41157 ft | 575 kts | 36° |
| 2026-05-07 09:18 | -47.61873 | -85.26223 | 41145 ft | 574 kts | 36° |
| 2026-05-07 09:18 | -47.56179 | -85.17920 | 41153 ft | 574 kts | 36° |
| 2026-05-07 09:19 | -47.50514 | -85.09685 | 41158 ft | 574 kts | 36° |
| 2026-05-07 09:19 | -47.44802 | -85.01407 | 41147 ft | 573 kts | 36° |
| 2026-05-07 09:20 | -47.39539 | -84.93807 | 41155 ft | 574 kts | 36° |
| 2026-05-07 09:20 | -47.33832 | -84.85589 | 41161 ft | 573 kts | 37° |
| 2026-05-07 09:21 | -47.28104 | -84.77366 | 41147 ft | 574 kts | 37° |
| 2026-05-07 09:21 | -47.22381 | -84.69177 | 41161 ft | 574 kts | 37° |
| 2026-05-07 09:22 | -47.16658 | -84.61010 | 41159 ft | 574 kts | 37° |
| 2026-05-07 09:22 | -47.10912 | -84.52840 | 41152 ft | 574 kts | 37° |
| 2026-05-07 09:23 | -47.05206 | -84.44754 | 41162 ft | 574 kts | 37° |
| 2026-05-07 09:23 | -46.99450 | -84.36620 | 41163 ft | 574 kts | 37° |
| 2026-05-07 09:24 | -46.93702 | -84.28525 | 41152 ft | 574 kts | 37° |
| 2026-05-07 09:24 | -46.87930 | -84.20420 | 41169 ft | 574 kts | 37° |
| 2026-05-07 09:25 | -46.82152 | -84.12332 | 41157 ft | 574 kts | 37° |
| 2026-05-07 09:25 | -46.76406 | -84.04316 | 41162 ft | 574 kts | 37° |
| 2026-05-07 09:26 | -46.70630 | -83.96284 | 41173 ft | 574 kts | 38° |
| 2026-05-07 09:26 | -46.64820 | -83.88228 | 41155 ft | 575 kts | 38° |
| 2026-05-07 09:27 | -46.59438 | -83.80784 | 41171 ft | 575 kts | 38° |
| 2026-05-07 09:28 | -46.50542 | -83.68529 | 41165 ft | 576 kts | 38° |
| 2026-05-07 09:28 | -46.44703 | -83.60520 | 41176 ft | 576 kts | 38° |
| 2026-05-07 09:29 | -46.38907 | -83.52592 | 41177 ft | 576 kts | 38° |
| 2026-05-07 09:29 | -46.33056 | -83.44615 | 41168 ft | 576 kts | 38° |
| 2026-05-07 09:30 | -46.27213 | -83.36677 | 41180 ft | 576 kts | 38° |
| 2026-05-07 09:30 | -46.21391 | -83.28788 | 41171 ft | 576 kts | 38° |
| 2026-05-07 09:31 | -46.15524 | -83.20860 | 41171 ft | 577 kts | 38° |
| 2026-05-07 09:31 | -46.09663 | -83.12966 | 41182 ft | 577 kts | 38° |
| 2026-05-07 09:32 | -46.03834 | -83.05138 | 41172 ft | 577 kts | 38° |
| 2026-05-07 09:32 | -45.98224 | -82.97603 | 41168 ft | 577 kts | 39° |
| 2026-05-07 09:33 | -45.92359 | -82.89722 | 41183 ft | 577 kts | 39° |
| 2026-05-07 09:33 | -45.86477 | -82.81829 | 41171 ft | 577 kts | 39° |
| 2026-05-07 09:34 | -45.80598 | -82.73962 | 41176 ft | 578 kts | 39° |
| 2026-05-07 09:34 | -45.74738 | -82.66144 | 41184 ft | 578 kts | 39° |
| 2026-05-07 09:35 | -45.68835 | -82.58298 | 41173 ft | 579 kts | 39° |
| 2026-05-07 09:35 | -45.62921 | -82.50463 | 41178 ft | 579 kts | 39° |
| 2026-05-07 09:36 | -45.57039 | -82.42686 | 41186 ft | 579 kts | 39° |
| 2026-05-07 09:36 | -45.51107 | -82.34871 | 41173 ft | 579 kts | 39° |
| 2026-05-07 09:37 | -45.45167 | -82.27070 | 41181 ft | 579 kts | 39° |
| 2026-05-07 09:37 | -45.39467 | -82.19604 | 41189 ft | 579 kts | 39° |
| 2026-05-07 09:38 | -45.33560 | -82.11884 | 41174 ft | 579 kts | 39° |
| 2026-05-07 09:38 | -45.27643 | -82.04175 | 41183 ft | 579 kts | 39° |
| 2026-05-07 09:39 | -45.21688 | -81.96453 | 41190 ft | 579 kts | 39° |
| 2026-05-07 09:39 | -45.16741 | -81.90053 | 41177 ft | 579 kts | 39° |
| 2026-05-07 09:40 | -45.10781 | -81.82355 | 41182 ft | 579 kts | 39° |
| 2026-05-07 09:40 | -45.03848 | -81.73428 | 41188 ft | 578 kts | 39° |
| 2026-05-07 09:41 | -44.98890 | -81.67065 | 41177 ft | 578 kts | 39° |
| 2026-05-07 09:41 | -44.92917 | -81.59419 | 41190 ft | 578 kts | 39° |
| 2026-05-07 09:42 | -44.86954 | -81.51813 | 41190 ft | 577 kts | 39° |
| 2026-05-07 09:42 | -44.80987 | -81.44224 | 41176 ft | 577 kts | 39° |
| 2026-05-07 09:43 | -44.75025 | -81.36656 | 41193 ft | 577 kts | 39° |
| 2026-05-07 09:43 | -44.69059 | -81.29108 | 41185 ft | 576 kts | 39° |
| 2026-05-07 09:44 | -44.63125 | -81.21621 | 41187 ft | 576 kts | 40° |
| 2026-05-07 09:44 | -44.57152 | -81.14110 | 41196 ft | 576 kts | 39° |
| 2026-05-07 09:45 | -44.51163 | -81.06600 | 41183 ft | 576 kts | 40° |
| 2026-05-07 09:45 | -44.45227 | -80.99178 | 41192 ft | 576 kts | 40° |
| 2026-05-07 09:46 | -44.39241 | -80.91711 | 41194 ft | 576 kts | 40° |
| 2026-05-07 09:46 | -44.33245 | -80.84256 | 41186 ft | 576 kts | 40° |
| 2026-05-07 09:47 | -44.27249 | -80.76821 | 41200 ft | 576 kts | 40° |
| 2026-05-07 09:47 | -44.21519 | -80.69735 | 41196 ft | 576 kts | 40° |
| 2026-05-07 09:48 | -44.15520 | -80.62339 | 41187 ft | 576 kts | 40° |
| 2026-05-07 09:48 | -44.09520 | -80.54961 | 41201 ft | 576 kts | 40° |
| 2026-05-07 09:49 | -44.03484 | -80.47558 | 41199 ft | 576 kts | 40° |
| 2026-05-07 09:49 | -43.97512 | -80.40258 | 41191 ft | 576 kts | 41° |
| 2026-05-07 09:50 | -43.91492 | -80.32919 | 41205 ft | 575 kts | 41° |
| 2026-05-07 09:50 | -43.85456 | -80.25581 | 41197 ft | 575 kts | 41° |
| 2026-05-07 09:51 | -43.79428 | -80.18272 | 41197 ft | 575 kts | 41° |
| 2026-05-07 09:51 | -43.73429 | -80.11020 | 41208 ft | 575 kts | 40° |
| 2026-05-07 09:52 | -43.67396 | -80.03745 | 41196 ft | 575 kts | 40° |
| 2026-05-07 09:52 | -43.61588 | -79.96761 | 41199 ft | 575 kts | 40° |
| 2026-05-07 09:53 | -43.55530 | -79.89496 | 41210 ft | 575 kts | 41° |
| 2026-05-07 09:53 | -43.49520 | -79.82308 | 41204 ft | 574 kts | 41° |
| 2026-05-07 09:54 | -43.43477 | -79.75099 | 41203 ft | 574 kts | 41° |
| 2026-05-07 09:54 | -43.37472 | -79.67957 | 41222 ft | 573 kts | 41° |
| 2026-05-07 09:55 | -43.31431 | -79.60793 | 41240 ft | 572 kts | 41° |
| 2026-05-07 09:55 | -43.25402 | -79.53663 | 41230 ft | 571 kts | 41° |
| 2026-05-07 09:56 | -43.19374 | -79.46554 | 41231 ft | 570 kts | 41° |
| 2026-05-07 09:56 | -43.13350 | -79.39465 | 41239 ft | 570 kts | 41° |
| 2026-05-07 09:57 | -43.07332 | -79.32404 | 41239 ft | 569 kts | 41° |
| 2026-05-07 09:57 | -43.01638 | -79.25740 | 41265 ft | 568 kts | 41° |
| 2026-05-07 09:58 | -42.95627 | -79.18724 | 41280 ft | 567 kts | 41° |
| 2026-05-07 09:58 | -42.89627 | -79.11739 | 41276 ft | 567 kts | 41° |
| 2026-05-07 09:59 | -42.83615 | -79.04760 | 41269 ft | 566 kts | 41° |
| 2026-05-07 09:59 | -42.77642 | -78.97842 | 41283 ft | 566 kts | 41° |
| 2026-05-07 10:00 | -42.71621 | -78.90890 | 41272 ft | 565 kts | 41° |
| 2026-05-07 10:00 | -42.65626 | -78.83984 | 41272 ft | 565 kts | 41° |
| 2026-05-07 10:01 | -42.59606 | -78.77068 | 41283 ft | 565 kts | 41° |
| 2026-05-07 10:01 | -42.53628 | -78.70217 | 41270 ft | 565 kts | 41° |
| 2026-05-07 10:02 | -42.47622 | -78.63353 | 41278 ft | 565 kts | 41° |
| 2026-05-07 10:02 | -42.41649 | -78.56545 | 41284 ft | 564 kts | 41° |
| 2026-05-07 10:03 | -42.35629 | -78.49700 | 41290 ft | 564 kts | 41° |
| 2026-05-07 10:03 | -42.29621 | -78.42886 | 41305 ft | 563 kts | 41° |
| 2026-05-07 10:04 | -42.23609 | -78.36085 | 41298 ft | 563 kts | 41° |
| 2026-05-07 10:04 | -42.17577 | -78.29280 | 41294 ft | 563 kts | 41° |
| 2026-05-07 10:05 | -42.11609 | -78.22564 | 41307 ft | 563 kts | 41° |
| 2026-05-07 10:05 | -42.05582 | -78.15801 | 41297 ft | 563 kts | 41° |
| 2026-05-07 10:06 | -41.99561 | -78.09059 | 41297 ft | 562 kts | 41° |
| 2026-05-07 10:06 | -41.93563 | -78.02361 | 41307 ft | 562 kts | 41° |
| 2026-05-07 10:07 | -41.87558 | -77.95672 | 41294 ft | 562 kts | 41° |
| 2026-05-07 10:07 | -41.81769 | -77.89238 | 41296 ft | 562 kts | 41° |
| 2026-05-07 10:08 | -41.75734 | -77.82546 | 41308 ft | 562 kts | 41° |
| 2026-05-07 10:08 | -41.69733 | -77.75914 | 41293 ft | 563 kts | 41° |
| 2026-05-07 10:09 | -41.63681 | -77.69239 | 41303 ft | 563 kts | 41° |
| 2026-05-07 10:09 | -41.57628 | -77.62579 | 41307 ft | 563 kts | 41° |
| 2026-05-07 10:10 | -41.51572 | -77.55933 | 41295 ft | 564 kts | 41° |
| 2026-05-07 10:10 | -41.45533 | -77.49325 | 41304 ft | 564 kts | 41° |
| 2026-05-07 10:11 | -41.39457 | -77.42691 | 41319 ft | 564 kts | 41° |
| 2026-05-07 10:11 | -41.33366 | -77.36058 | 41310 ft | 565 kts | 41° |
| 2026-05-07 10:12 | -41.27379 | -77.29552 | 41303 ft | 565 kts | 41° |
| 2026-05-07 10:12 | -41.21424 | -77.23097 | 41311 ft | 565 kts | 41° |
| 2026-05-07 10:13 | -41.15321 | -77.16499 | 41320 ft | 566 kts | 41° |
| 2026-05-07 10:13 | -41.09202 | -77.09899 | 41307 ft | 566 kts | 41° |
| 2026-05-07 10:14 | -41.03115 | -77.03349 | 41316 ft | 567 kts | 41° |
| 2026-05-07 10:14 | -40.96908 | -76.96902 | 41318 ft | 567 kts | 39° |
| 2026-05-07 10:15 | -40.90625 | -76.90590 | 41308 ft | 567 kts | 39° |
| 2026-05-07 10:15 | -40.84314 | -76.84297 | 41320 ft | 568 kts | 39° |
| 2026-05-07 10:16 | -40.77986 | -76.77996 | 41316 ft | 569 kts | 39° |
| 2026-05-07 10:16 | -40.71696 | -76.71741 | 41311 ft | 569 kts | 39° |
| 2026-05-07 10:17 | -40.65341 | -76.65435 | 41325 ft | 570 kts | 39° |
| 2026-05-07 10:17 | -40.59443 | -76.59596 | 41317 ft | 570 kts | 39° |
| 2026-05-07 10:18 | -40.53083 | -76.53315 | 41312 ft | 571 kts | 39° |
| 2026-05-07 10:18 | -40.46760 | -76.47087 | 41324 ft | 572 kts | 39° |
| 2026-05-07 10:19 | -40.40373 | -76.40812 | 41317 ft | 573 kts | 39° |
| 2026-05-07 10:19 | -40.33987 | -76.34552 | 41315 ft | 573 kts | 39° |
| 2026-05-07 10:20 | -40.27578 | -76.28286 | 41331 ft | 574 kts | 39° |
| 2026-05-07 10:20 | -40.21249 | -76.22112 | 41351 ft | 575 kts | 39° |
| 2026-05-07 10:21 | -40.14860 | -76.15895 | 41348 ft | 575 kts | 39° |
| 2026-05-07 10:21 | -40.08429 | -76.09651 | 41342 ft | 575 kts | 39° |
| 2026-05-07 10:22 | -40.01996 | -76.03421 | 41354 ft | 576 kts | 39° |
| 2026-05-07 10:22 | -39.95583 | -75.97227 | 41348 ft | 576 kts | 39° |
| 2026-05-07 10:23 | -39.89141 | -75.91017 | 41342 ft | 576 kts | 39° |
| 2026-05-07 10:23 | -39.82685 | -75.84806 | 41354 ft | 576 kts | 39° |
| 2026-05-07 10:24 | -39.76246 | -75.78629 | 41344 ft | 576 kts | 39° |
| 2026-05-07 10:24 | -39.69827 | -75.72487 | 41344 ft | 575 kts | 39° |
| 2026-05-07 10:25 | -39.63379 | -75.66332 | 41355 ft | 575 kts | 39° |
| 2026-05-07 10:25 | -39.56923 | -75.60184 | 41340 ft | 575 kts | 39° |
| 2026-05-07 10:26 | -39.51562 | -75.55089 | 41345 ft | 574 kts | 39° |
| 2026-05-07 10:26 | -39.44063 | -75.47977 | 41353 ft | 573 kts | 39° |
| 2026-05-07 10:27 | -39.38709 | -75.42912 | 41341 ft | 573 kts | 39° |
| 2026-05-07 10:27 | -39.32870 | -75.37398 | 41347 ft | 572 kts | 39° |
| 2026-05-07 10:28 | -39.26439 | -75.31342 | 41353 ft | 571 kts | 39° |
| 2026-05-07 10:28 | -39.20006 | -75.25299 | 41340 ft | 571 kts | 39° |
| 2026-05-07 10:29 | -39.13612 | -75.19305 | 41347 ft | 570 kts | 39° |
| 2026-05-07 10:29 | -39.07179 | -75.13287 | 41352 ft | 569 kts | 39° |
| 2026-05-07 10:30 | -38.97567 | -75.04319 | 41343 ft | 568 kts | 39° |
| 2026-05-07 10:30 | -38.91194 | -74.98392 | 41355 ft | 568 kts | 39° |
| 2026-05-07 10:31 | -38.84778 | -74.92438 | 41343 ft | 567 kts | 39° |
| 2026-05-07 10:31 | -38.78375 | -74.86510 | 41346 ft | 567 kts | 40° |
| 2026-05-07 10:32 | -38.72013 | -74.80634 | 41357 ft | 566 kts | 40° |
| 2026-05-07 10:32 | -38.65869 | -74.74970 | 41343 ft | 566 kts | 40° |
| 2026-05-07 10:33 | -38.59465 | -74.69080 | 41347 ft | 566 kts | 40° |
| 2026-05-07 10:33 | -38.53109 | -74.63247 | 41356 ft | 565 kts | 40° |
| 2026-05-07 10:34 | -38.46684 | -74.57363 | 41342 ft | 564 kts | 40° |
| 2026-05-07 10:34 | -38.40298 | -74.51528 | 41349 ft | 564 kts | 40° |
| 2026-05-07 10:35 | -38.33967 | -74.45758 | 41354 ft | 563 kts | 40° |
| 2026-05-07 10:35 | -38.27578 | -74.39948 | 41340 ft | 563 kts | 40° |
| 2026-05-07 10:36 | -38.21194 | -74.34154 | 41354 ft | 562 kts | 40° |
| 2026-05-07 10:36 | -38.14814 | -74.28372 | 41345 ft | 562 kts | 40° |
| 2026-05-07 10:37 | -38.08495 | -74.22665 | 41340 ft | 561 kts | 40° |
| 2026-05-07 10:37 | -38.02341 | -74.17119 | 41355 ft | 561 kts | 40° |
| 2026-05-07 10:38 | -37.95997 | -74.11412 | 41347 ft | 561 kts | 40° |
| 2026-05-07 10:38 | -37.89614 | -74.05681 | 41343 ft | 561 kts | 40° |
| 2026-05-07 10:39 | -37.83254 | -73.99983 | 41355 ft | 561 kts | 40° |
| 2026-05-07 10:39 | -37.77105 | -73.94485 | 41353 ft | 561 kts | 40° |
| 2026-05-07 10:40 | -37.70715 | -73.88784 | 41340 ft | 561 kts | 40° |
| 2026-05-07 10:40 | -37.64306 | -73.83079 | 41338 ft | 560 kts | 40° |
| 2026-05-07 10:41 | -37.57983 | -73.77461 | 41354 ft | 559 kts | 40° |
| 2026-05-07 10:41 | -37.51720 | -73.71909 | 41368 ft | 559 kts | 40° |
| 2026-05-07 10:42 | -37.45410 | -73.66329 | 41357 ft | 559 kts | 40° |
| 2026-05-07 10:42 | -37.39061 | -73.60726 | 41340 ft | 558 kts | 40° |
| 2026-05-07 10:43 | -37.32733 | -73.55137 | 41332 ft | 557 kts | 40° |
| 2026-05-07 10:43 | -37.26373 | -73.49558 | 41293 ft | 557 kts | 40° |
| 2026-05-07 10:44 | -37.20017 | -73.43983 | 41288 ft | 557 kts | 40° |
| 2026-05-07 10:44 | -37.13672 | -73.38429 | 41311 ft | 556 kts | 39° |
| 2026-05-07 10:45 | -37.07304 | -73.32871 | 41323 ft | 556 kts | 39° |
| 2026-05-07 10:45 | -37.00984 | -73.27362 | 41323 ft | 556 kts | 39° |
| 2026-05-07 10:46 | -36.94612 | -73.21820 | 41338 ft | 556 kts | 39° |
| 2026-05-07 10:46 | -36.88311 | -73.16351 | 41345 ft | 555 kts | 39° |
| 2026-05-07 10:47 | -36.82124 | -73.10988 | 41347 ft | 555 kts | 39° |
| 2026-05-07 10:47 | -36.76000 | -73.05141 | 41346 ft | 556 kts | 46° |
| 2026-05-07 10:48 | -36.70263 | -72.98707 | 41350 ft | 554 kts | 49° |
| 2026-05-07 10:48 | -36.64794 | -72.92085 | 41338 ft | 551 kts | 50° |
| 2026-05-07 10:49 | -36.59360 | -72.85385 | 41333 ft | 548 kts | 50° |
| 2026-05-07 10:49 | -36.53932 | -72.78728 | 41307 ft | 546 kts | 51° |
| 2026-05-07 10:50 | -36.48524 | -72.72081 | 41318 ft | 546 kts | 50° |
| 2026-05-07 10:50 | -36.43143 | -72.65497 | 41297 ft | 545 kts | 50° |
| 2026-05-07 10:51 | -36.37742 | -72.58881 | 41281 ft | 545 kts | 50° |
| 2026-05-07 10:51 | -36.32327 | -72.52300 | 41246 ft | 544 kts | 50° |
| 2026-05-07 10:52 | -36.27152 | -72.46041 | 41239 ft | 544 kts | 50° |
| 2026-05-07 10:52 | -36.21691 | -72.39384 | 41234 ft | 545 kts | 49° |
| 2026-05-07 10:53 | -36.16264 | -72.32820 | 41217 ft | 545 kts | 49° |
| 2026-05-07 10:53 | -36.10827 | -72.26257 | 41224 ft | 545 kts | 49° |
| 2026-05-07 10:54 | -36.05183 | -72.20227 | 41214 ft | 543 kts | 37° |
| 2026-05-07 10:54 | -35.98594 | -72.15473 | 41240 ft | 544 kts | 30° |
| 2026-05-07 10:55 | -35.91785 | -72.11328 | 41228 ft | 548 kts | 27° |
| 2026-05-07 10:55 | -35.84816 | -72.07370 | 41242 ft | 552 kts | 26° |
| 2026-05-07 10:56 | -35.77833 | -72.03468 | 41262 ft | 555 kts | 26° |
| 2026-05-07 10:56 | -35.70812 | -71.99502 | 41247 ft | 556 kts | 26° |
| 2026-05-07 10:57 | -35.64209 | -71.95780 | 41251 ft | 557 kts | 26° |
| 2026-05-07 10:57 | -35.57051 | -71.91730 | 41256 ft | 557 kts | 26° |
| 2026-05-07 10:58 | -35.50016 | -71.87769 | 41264 ft | 556 kts | 26° |
| 2026-05-07 10:58 | -35.42993 | -71.83834 | 41250 ft | 556 kts | 25° |
| 2026-05-07 10:59 | -35.35939 | -71.79905 | 41262 ft | 555 kts | 25° |
| 2026-05-07 10:59 | -35.28906 | -71.76005 | 41278 ft | 555 kts | 25° |
| 2026-05-07 11:00 | -35.21868 | -71.72080 | 41313 ft | 555 kts | 25° |
| 2026-05-07 11:00 | -35.14827 | -71.68174 | 41302 ft | 554 kts | 25° |
| 2026-05-07 11:01 | -35.07833 | -71.64287 | 41294 ft | 554 kts | 25° |
| 2026-05-07 11:01 | -35.00812 | -71.60398 | 41285 ft | 554 kts | 25° |
| 2026-05-07 11:02 | -34.94090 | -71.56705 | 41326 ft | 554 kts | 24° |
| 2026-05-07 11:02 | -34.87333 | -71.52986 | 41368 ft | 551 kts | 25° |
| 2026-05-07 11:03 | -34.80331 | -71.49153 | 41226 ft | 551 kts | 24° |
| 2026-05-07 11:03 | -34.76820 | -71.47230 | 40717 ft | 551 kts | 25° |
| 2026-05-07 11:03 | -34.73316 | -71.45312 | 40114 ft | 550 kts | 25° |
| 2026-05-07 11:04 | -34.69871 | -71.43415 | 39509 ft | 550 kts | 25° |
| 2026-05-07 11:04 | -34.66339 | -71.41481 | 39008 ft | 549 kts | 26° |
| 2026-05-07 11:04 | -34.62821 | -71.39646 | 38501 ft | 551 kts | 24° |
| 2026-05-07 11:04 | -34.59254 | -71.37863 | 37838 ft | 554 kts | 25° |
| 2026-05-07 11:05 | -34.55673 | -71.36109 | 37299 ft | 556 kts | 25° |
| 2026-05-07 11:05 | -34.52101 | -71.34368 | 36787 ft | 561 kts | 26° |
| 2026-05-07 11:05 | -34.48479 | -71.32598 | 36105 ft | 565 kts | 26° |
| 2026-05-07 11:05 | -34.44810 | -71.30807 | 35569 ft | 569 kts | 27° |
| 2026-05-07 11:06 | -34.41134 | -71.29006 | 35022 ft | 574 kts | 28° |
| 2026-05-07 11:06 | -34.37433 | -71.27190 | 34364 ft | 578 kts | 28° |
| 2026-05-07 11:06 | -34.33637 | -71.25329 | 33757 ft | 582 kts | 29° |
| 2026-05-07 11:06 | -34.29928 | -71.23509 | 33231 ft | 585 kts | 28° |
| 2026-05-07 11:07 | -34.26160 | -71.21662 | 32614 ft | 587 kts | 28° |
| 2026-05-07 11:07 | -34.22402 | -71.19823 | 31958 ft | 588 kts | 28° |
| 2026-05-07 11:07 | -34.19156 | -71.18237 | 31463 ft | 589 kts | 27° |
| 2026-05-07 11:07 | -34.15833 | -71.16618 | 30916 ft | 588 kts | 27° |
| 2026-05-07 11:08 | -34.12024 | -71.14765 | 30223 ft | 587 kts | 26° |
| 2026-05-07 11:08 | -34.08279 | -71.12956 | 29660 ft | 579 kts | 26° |
| 2026-05-07 11:08 | -34.04539 | -71.11150 | 29156 ft | 570 kts | 25° |
| 2026-05-07 11:08 | -34.00815 | -71.09635 | 28540 ft | 565 kts | 16° |
| 2026-05-07 11:09 | -33.96976 | -71.08762 | 27949 ft | 554 kts | 7° |
| 2026-05-07 11:09 | -33.93185 | -71.08230 | 27472 ft | 541 kts | 4° |
| 2026-05-07 11:09 | -33.89453 | -71.07923 | 26958 ft | 533 kts | 0° |
| 2026-05-07 11:09 | -33.85766 | -71.07811 | 26371 ft | 525 kts | 358° |
| 2026-05-07 11:10 | -33.82206 | -71.07818 | 25835 ft | 514 kts | 356° |
| 2026-05-07 11:10 | -33.80819 | -71.07832 | 25639 ft | 510 kts | 356° |
| 2026-05-07 11:10 | -33.78485 | -71.07875 | 25327 ft | 505 kts | 355° |
| 2026-05-07 11:10 | -33.73855 | -71.08001 | 24716 ft | 496 kts | 354° |
| 2026-05-07 11:11 | -33.70425 | -71.08096 | 24143 ft | 489 kts | 355° |
| 2026-05-07 11:11 | -33.67042 | -71.08174 | 23696 ft | 481 kts | 354° |
| 2026-05-07 11:11 | -33.64802 | -71.08227 | 23405 ft | 476 kts | 354° |
| 2026-05-07 11:11 | -33.61560 | -71.08298 | 22894 ft | 470 kts | 355° |
| 2026-05-07 11:12 | -33.58284 | -71.08363 | 22324 ft | 461 kts | 355° |
| 2026-05-07 11:12 | -33.55351 | -71.08432 | 21882 ft | 454 kts | 355° |
| 2026-05-07 11:12 | -33.52820 | -71.08490 | 21572 ft | 449 kts | 355° |
| 2026-05-07 11:12 | -33.49605 | -71.08555 | 21164 ft | 444 kts | 355° |
| 2026-05-07 11:13 | -33.46535 | -71.08618 | 20756 ft | 438 kts | 355° |
| 2026-05-07 11:13 | -33.43500 | -71.08677 | 20233 ft | 431 kts | 355° |
| 2026-05-07 11:13 | -33.40515 | -71.08737 | 19794 ft | 424 kts | 355° |
| 2026-05-07 11:13 | -33.37619 | -71.08795 | 19434 ft | 418 kts | 355° |
| 2026-05-07 11:14 | -33.34908 | -71.08850 | 19083 ft | 413 kts | 355° |
| 2026-05-07 11:14 | -33.32135 | -71.08908 | 18652 ft | 408 kts | 355° |
| 2026-05-07 11:14 | -33.29453 | -71.08963 | 18188 ft | 403 kts | 355° |
| 2026-05-07 11:14 | -33.26677 | -71.09020 | 17787 ft | 396 kts | 355° |
| 2026-05-07 11:15 | -33.23934 | -71.09076 | 17443 ft | 391 kts | 356° |
| 2026-05-07 11:15 | -33.21243 | -71.08930 | 17001 ft | 390 kts | 2° |
| 2026-05-07 11:15 | -33.18566 | -71.08558 | 16624 ft | 387 kts | 5° |
| 2026-05-07 11:15 | -33.15890 | -71.08100 | 16282 ft | 385 kts | 6° |
| 2026-05-07 11:16 | -33.13247 | -71.07589 | 15824 ft | 382 kts | 7° |
| 2026-05-07 11:16 | -33.10662 | -71.07059 | 15462 ft | 380 kts | 7° |
| 2026-05-07 11:16 | -33.08066 | -71.06512 | 15125 ft | 378 kts | 8° |
| 2026-05-07 11:16 | -33.05489 | -71.05962 | 14671 ft | 376 kts | 8° |
| 2026-05-07 11:17 | -33.02935 | -71.05414 | 14287 ft | 370 kts | 8° |
| 2026-05-07 11:17 | -33.00400 | -71.04870 | 13970 ft | 370 kts | 8° |
| 2026-05-07 11:17 | -32.97864 | -71.04327 | 13536 ft | 366 kts | 8° |
| 2026-05-07 11:17 | -32.95376 | -71.03785 | 13130 ft | 360 kts | 9° |
| 2026-05-07 11:18 | -32.93130 | -71.02829 | 12349 ft | 367 kts | 28° |
| 2026-05-07 11:18 | -32.91245 | -71.00867 | 11548 ft | 372 kts | 51° |
| 2026-05-07 11:18 | -32.90160 | -70.98391 | 11026 ft | 367 kts | 73° |
| 2026-05-07 11:18 | -32.89875 | -70.95624 | 10793 ft | 353 kts | 91° |
| 2026-05-07 11:19 | -32.89915 | -70.92773 | 10571 ft | 339 kts | 93° |
| 2026-05-07 11:19 | -32.90048 | -70.90044 | 10203 ft | 324 kts | 95° |
| 2026-05-07 11:19 | -32.90378 | -70.87445 | 9914 ft | 309 kts | 103° |
| 2026-05-07 11:19 | -32.90878 | -70.85131 | 9615 ft | 297 kts | 108° |
| 2026-05-07 11:20 | -32.91465 | -70.82795 | 9255 ft | 289 kts | 108° |
| 2026-05-07 11:20 | -32.92041 | -70.80516 | 8881 ft | 283 kts | 108° |
| 2026-05-07 11:20 | -32.92585 | -70.78366 | 8516 ft | 277 kts | 108° |
| 2026-05-07 11:20 | -32.93118 | -70.76254 | 8144 ft | 273 kts | 108° |
| 2026-05-07 11:21 | -32.93677 | -70.74090 | 7740 ft | 269 kts | 110° |
| 2026-05-07 11:21 | -32.94643 | -70.72244 | 7117 ft | 270 kts | 136° |
| 2026-05-07 11:21 | -32.96220 | -70.71160 | 6485 ft | 270 kts | 164° |
| 2026-05-07 11:21 | -32.98133 | -70.71118 | 5864 ft | 275 kts | 194° |
| 2026-05-07 11:22 | -32.99783 | -70.72224 | 5538 ft | 268 kts | 224° |
| 2026-05-07 11:22 | -33.00752 | -70.73982 | 5712 ft | 241 kts | 240° |
| 2026-05-07 11:22 | -33.01613 | -70.75606 | 6093 ft | 223 kts | 234° |
| 2026-05-07 11:22 | -33.02553 | -70.76999 | 6316 ft | 211 kts | 228° |
| 2026-05-07 11:23 | -33.03536 | -70.78244 | 6442 ft | 206 kts | 225° |
| 2026-05-07 11:23 | -33.04468 | -70.79332 | 6481 ft | 204 kts | 223° |
| 2026-05-07 11:23 | -33.05695 | -70.80241 | 6376 ft | 202 kts | 195° |
| 2026-05-07 11:23 | -33.07066 | -70.80281 | 6359 ft | 195 kts | 179° |
| 2026-05-07 11:24 | -33.08337 | -70.80232 | 6289 ft | 194 kts | 180° |
| 2026-05-07 11:24 | -33.09707 | -70.80171 | 6174 ft | 192 kts | 173° |
| 2026-05-07 11:24 | -33.11021 | -70.80014 | 6150 ft | 190 kts | 178° |
| 2026-05-07 11:24 | -33.12339 | -70.79974 | 6062 ft | 189 kts | 180° |
| 2026-05-07 11:25 | -33.13656 | -70.79951 | 6002 ft | 188 kts | 180° |
| 2026-05-07 11:25 | -33.14920 | -70.79918 | 5929 ft | 188 kts | 179° |
| 2026-05-07 11:25 | -33.16083 | -70.79828 | 5784 ft | 188 kts | 176° |
| 2026-05-07 11:25 | -33.17384 | -70.79797 | 5547 ft | 190 kts | 174° |
| 2026-05-07 11:26 | -33.18723 | -70.79757 | 5405 ft | 174 kts | 188° |
| 2026-05-07 11:26 | -33.19968 | -70.79627 | 4743 ft | 184 kts | 178° |
| 2026-05-07 11:26 | -33.21181 | -70.79554 | 4473 ft | 162 kts | 177° |
| 2026-05-07 11:26 | -33.22265 | -70.79478 | 4399 ft | 154 kts | 178° |
| 2026-05-07 11:27 | -33.23326 | -70.79421 | 4306 ft | 152 kts | 179° |
| 2026-05-07 11:27 | -33.24201 | -70.79378 | 4167 ft | 151 kts | 178° |
| 2026-05-07 11:27 | -33.25244 | -70.79331 | 3964 ft | 150 kts | 180° |
| 2026-05-07 11:27 | -33.26280 | -70.79290 | 3784 ft | 148 kts | 179° |
| 2026-05-07 11:28 | -33.27308 | -70.79242 | 3577 ft | 147 kts | 178° |
| 2026-05-07 11:28 | -33.28327 | -70.79173 | 3388 ft | 146 kts | 178° |
| 2026-05-07 11:28 | -33.29343 | -70.79106 | 3187 ft | 146 kts | 178° |
| 2026-05-07 11:28 | -33.30355 | -70.79052 | 3001 ft | 145 kts | 179° |
| 2026-05-07 11:29 | -33.31359 | -70.79003 | 2798 ft | 146 kts | 178° |
| 2026-05-07 11:29 | -33.32380 | -70.78953 | 2608 ft | 147 kts | 177° |
| 2026-05-07 11:29 | -33.33404 | -70.78902 | 2415 ft | 147 kts | 178° |
| 2026-05-07 11:29 | -33.34426 | -70.78847 | 2220 ft | 147 kts | 177° |
| 2026-05-07 11:30 | -33.35449 | -70.78788 | 2024 ft | 147 kts | 176° |
| 2026-05-07 11:30 | -33.36417 | -70.78733 | 1839 ft | 147 kts | 177° |
| 2026-05-07 11:30 | -33.37317 | -70.78698 | 1666 ft | 147 kts | 178° |
| 2026-05-07 11:30 | -33.38108 | -70.78644 | 1591 ft | 142 kts | 177° |
| 2026-05-07 11:31 | -33.39011 | -70.78602 | 1569 ft | 123 kts | 177° |
| 2026-05-07 11:31 | -33.39692 | -70.78566 | 1569 ft | 70 kts | 177° |
| 2026-05-07 11:31 | -33.40073 | -70.78544 | 1569 ft | 45 kts | 177° |
| 2026-05-07 11:31 | -33.40277 | -70.78532 | 1569 ft | 15 kts | 177° |
| 2026-05-07 11:32 | -33.40456 | -70.78613 | 1569 ft | 13 kts | 270° |
| 2026-05-07 11:32 | -33.40412 | -70.78724 | 1569 ft | 17 kts | 317° |
| 2026-05-07 11:32 | -33.40309 | -70.78801 | 1569 ft | 19 kts | 360° |
| 2026-05-07 11:33 | -33.40158 | -70.78804 | 1569 ft | 23 kts | 359° |
| 2026-05-07 11:33 | -33.39988 | -70.78814 | 1569 ft | 27 kts | 356° |
| 2026-05-07 11:33 | -33.39792 | -70.78830 | 1569 ft | 29 kts | 356° |
| 2026-05-07 11:33 | -33.39583 | -70.78835 | 1569 ft | 31 kts | 358° |
| 2026-05-07 11:34 | -33.39363 | -70.78845 | 1569 ft | 33 kts | 358° |
| 2026-05-07 11:34 | -33.39191 | -70.78878 | 1569 ft | 13 kts | 299° |
| 2026-05-07 11:34 | -33.39194 | -70.78908 | 1569 ft | 3 kts | 227° |
| 2026-05-07 11:34 | -33.39221 | -70.78942 | 1569 ft | 8 kts | 227° |
| 2026-05-07 11:35 | -33.39270 | -70.79005 | 1569 ft | 13 kts | 227° |
| 2026-05-07 11:35 | -33.39342 | -70.79098 | 1569 ft | 17 kts | 227° |
| 2026-05-07 11:35 | -33.39431 | -70.79211 | 1569 ft | 15 kts | 225° |
| 2026-05-07 11:35 | -33.39510 | -70.79244 | 1569 ft | 12 kts | 176° |
| 2026-05-07 11:36 | -33.39552 | -70.79242 | 1569 ft | 1 kts | 178° |
| 2026-05-07 11:36 | -33.39544 | -70.79243 | 1569 ft | 0 kts | 178° |